Time,TemperatureF,DewpointF,PressureIn,WindDirection,WindDirectionDegrees,WindSpeedMPH,WindSpeedGustMPH,Humidity,HourlyPrecipIn,Conditions,Clouds,dailyrainin,SoftwareType,DateUTC
2013-09-10 00:00:00,63.9,60.6,30.16,North,32767,-999.0,0.0,89,0.00,,,0.00,Wunderground v.1.15,2013-09-10 04:00:00,
2013-09-10 00:01:00,63.9,60.6,30.16,North,32767,-999.0,0.0,89,0.00,,,0.00,Wunderground v.1.15,2013-09-10 04:01:00,
2013-09-10 00:02:00,63.9,60.6,30.16,North,32767,-999.0,0.0,89,0.00,,,0.00,Wunderground v.1.15,2013-09-10 04:02:00,
2013-09-10 00:03:00,63.9,60.6,30.16,North,32767,-999.0,0.0,89,0.00,,,0.00,Wunderground v.1.15,2013-09-10 04:03:00,
2013-09-10 00:04:00,63.9,60.6,30.16,North,32767,-999.0,0.0,89,0.00,,,0.00,Wunderground v.1.15,2013-09-10 04:04:00,
2013-09-10 00:05:00,63.9,60.6,30.16,North,32767,-999.0,0.0,89,0.00,,,0.00,Wunderground v.1.15,2013-09-10 04:05:00,
2013-09-10 00:07:00,63.9,60.6,30.16,North,32767,-999.0,0.0,89,0.00,,,0.00,Wunderground v.1.15,2013-09-10 04:07:00,
2013-09-10 00:08:00,63.9,60.6,30.16,North,32767,-999.0,0.0,89,0.00,,,0.00,Wunderground v.1.15,2013-09-10 04:08:00,
2013-09-10 00:10:00,63.9,60.6,30.16,North,32767,-999.0,0.0,89,0.00,,,0.00,Wunderground v.1.15,2013-09-10 04:10:00,
2013-09-10 00:11:00,63.9,60.6,30.16,North,32767,-999.0,0.0,89,0.00,,,0.00,Wunderground v.1.15,2013-09-10 04:11:00,
2013-09-10 00:15:00,63.9,60.6,30.16,North,32767,-999.0,0.0,89,0.00,,,0.00,Wunderground v.1.15,2013-09-10 04:15:00,
2013-09-10 00:16:00,63.9,60.6,30.16,North,32767,-999.0,0.0,89,0.00,,,0.00,Wunderground v.1.15,2013-09-10 04:16:00,
2013-09-10 00:17:00,63.9,60.6,30.16,North,32767,-999.0,0.0,89,0.00,,,0.00,Wunderground v.1.15,2013-09-10 04:17:00,
2013-09-10 00:18:00,63.9,60.6,30.16,North,32767,-999.0,0.0,89,0.00,,,0.00,Wunderground v.1.15,2013-09-10 04:18:00,
2013-09-10 00:19:00,63.9,60.6,30.16,North,32767,-999.0,0.0,89,0.00,,,0.00,Wunderground v.1.15,2013-09-10 04:19:00,
2013-09-10 00:21:00,63.9,60.6,30.16,North,32767,-999.0,0.0,89,0.00,,,0.00,Wunderground v.1.15,2013-09-10 04:21:00,
2013-09-10 00:22:00,63.8,60.5,30.16,North,32767,-999.0,0.0,89,0.00,,,0.00,Wunderground v.1.15,2013-09-10 04:22:00,
2013-09-10 00:23:00,63.8,60.5,30.16,North,32767,-999.0,0.0,89,0.00,,,0.00,Wunderground v.1.15,2013-09-10 04:23:00,
2013-09-10 00:24:00,63.8,60.5,30.16,North,32767,-999.0,0.0,89,0.00,,,0.00,Wunderground v.1.15,2013-09-10 04:24:00,
2013-09-10 00:26:00,63.8,60.5,30.16,North,32767,-999.0,0.0,89,0.00,,,0.00,Wunderground v.1.15,2013-09-10 04:26:00,
2013-09-10 00:28:00,63.8,60.8,30.16,North,32767,-999.0,0.0,90,0.00,,,0.00,Wunderground v.1.15,2013-09-10 04:28:00,
2013-09-10 00:30:00,63.8,60.8,30.16,North,32767,-999.0,0.0,90,0.00,,,0.00,Wunderground v.1.15,2013-09-10 04:30:00,
2013-09-10 00:32:00,63.8,60.8,30.16,North,32767,-999.0,0.0,90,0.00,,,0.00,Wunderground v.1.15,2013-09-10 04:32:00,
2013-09-10 00:34:00,63.8,60.8,30.15,North,32767,-999.0,0.0,90,0.00,,,0.00,Wunderground v.1.15,2013-09-10 04:34:00,
2013-09-10 00:36:00,63.8,60.8,30.15,North,32767,-999.0,0.0,90,0.00,,,0.00,Wunderground v.1.15,2013-09-10 04:36:00,
2013-09-10 00:37:00,63.7,60.7,30.15,North,32767,-999.0,0.0,90,0.00,,,0.00,Wunderground v.1.15,2013-09-10 04:37:00,
2013-09-10 00:40:00,63.7,60.7,30.14,North,32767,-999.0,0.0,90,0.00,,,0.00,Wunderground v.1.15,2013-09-10 04:40:00,
2013-09-10 00:42:00,63.7,60.7,30.14,North,32767,-999.0,0.0,90,0.00,,,0.00,Wunderground v.1.15,2013-09-10 04:42:00,
2013-09-10 00:43:00,63.7,60.7,30.14,North,32767,-999.0,0.0,90,0.00,,,0.00,Wunderground v.1.15,2013-09-10 04:43:00,
2013-09-10 00:44:00,63.7,60.7,30.14,North,32767,-999.0,0.0,90,0.00,,,0.00,Wunderground v.1.15,2013-09-10 04:44:00,
2013-09-10 00:46:00,63.7,60.7,30.14,North,32767,-999.0,0.0,90,0.00,,,0.00,Wunderground v.1.15,2013-09-10 04:46:00,
2013-09-10 00:49:00,63.7,60.7,30.14,North,32767,-999.0,0.0,90,0.00,,,0.00,Wunderground v.1.15,2013-09-10 04:49:00,
2013-09-10 00:50:00,63.7,60.7,30.14,North,32767,-999.0,0.0,90,0.00,,,0.00,Wunderground v.1.15,2013-09-10 04:50:00,
2013-09-10 00:51:00,63.7,60.7,30.14,North,32767,-999.0,0.0,90,0.00,,,0.00,Wunderground v.1.15,2013-09-10 04:51:00,
2013-09-10 00:52:00,63.7,60.7,30.14,North,32767,-999.0,0.0,90,0.00,,,0.00,Wunderground v.1.15,2013-09-10 04:52:00,
2013-09-10 00:54:00,63.7,60.7,30.14,North,32767,-999.0,0.0,90,0.00,,,0.00,Wunderground v.1.15,2013-09-10 04:54:00,
2013-09-10 00:56:00,63.7,61.0,30.14,North,32767,-999.0,0.0,91,0.00,,,0.00,Wunderground v.1.15,2013-09-10 04:56:00,
2013-09-10 00:57:00,63.8,61.1,30.14,North,32767,-999.0,0.0,91,0.00,,,0.00,Wunderground v.1.15,2013-09-10 04:57:00,
2013-09-10 00:58:00,63.8,61.1,30.14,North,32767,-999.0,0.0,91,0.00,,,0.00,Wunderground v.1.15,2013-09-10 04:58:00,
2013-09-10 00:59:00,63.8,61.1,30.15,North,32767,-999.0,0.0,91,0.00,,,0.00,Wunderground v.1.15,2013-09-10 04:59:00,
2013-09-10 01:03:00,63.9,61.2,30.15,North,32767,-999.0,0.0,91,0.00,,,0.00,Wunderground v.1.15,2013-09-10 05:03:00,
2013-09-10 01:04:00,63.9,61.2,30.15,North,32767,-999.0,0.0,91,0.00,,,0.00,Wunderground v.1.15,2013-09-10 05:04:00,
2013-09-10 01:05:00,63.9,61.2,30.15,North,32767,-999.0,0.0,91,0.00,,,0.00,Wunderground v.1.15,2013-09-10 05:05:00,
2013-09-10 01:06:00,63.9,61.2,30.15,North,32767,-999.0,0.0,91,0.00,,,0.00,Wunderground v.1.15,2013-09-10 05:06:00,
2013-09-10 01:09:00,64.0,61.3,30.15,North,32767,-999.0,0.0,91,0.00,,,0.00,Wunderground v.1.15,2013-09-10 05:09:00,
2013-09-10 01:10:00,64.0,61.3,30.15,North,32767,-999.0,0.0,91,0.00,,,0.00,Wunderground v.1.15,2013-09-10 05:10:00,
2013-09-10 01:12:00,64.0,61.3,30.15,North,32767,-999.0,0.0,91,0.00,,,0.00,Wunderground v.1.15,2013-09-10 05:12:00,
2013-09-10 01:14:00,64.0,61.3,30.15,North,32767,-999.0,0.0,91,0.00,,,0.00,Wunderground v.1.15,2013-09-10 05:14:00,
2013-09-10 01:15:00,64.1,61.4,30.15,North,32767,-999.0,0.0,91,0.00,,,0.00,Wunderground v.1.15,2013-09-10 05:15:00,
2013-09-10 01:16:00,64.1,61.4,30.15,North,32767,-999.0,0.0,91,0.00,,,0.00,Wunderground v.1.15,2013-09-10 05:16:00,
2013-09-10 01:18:00,64.1,61.4,30.15,North,32767,-999.0,0.0,91,0.00,,,0.00,Wunderground v.1.15,2013-09-10 05:18:00,
2013-09-10 01:19:00,64.1,61.4,30.15,North,32767,-999.0,0.0,91,0.00,,,0.00,Wunderground v.1.15,2013-09-10 05:19:00,
2013-09-10 01:21:00,64.2,61.5,30.15,North,32767,-999.0,0.0,91,0.00,,,0.00,Wunderground v.1.15,2013-09-10 05:21:00,
2013-09-10 01:23:00,64.2,61.5,30.15,North,32767,-999.0,0.0,91,0.00,,,0.00,Wunderground v.1.15,2013-09-10 05:23:00,
2013-09-10 01:24:00,64.3,61.9,30.15,North,32767,-999.0,0.0,92,0.00,,,0.00,Wunderground v.1.15,2013-09-10 05:24:00,
2013-09-10 01:25:00,64.3,61.9,30.15,North,32767,-999.0,0.0,92,0.00,,,0.00,Wunderground v.1.15,2013-09-10 05:25:00,
2013-09-10 01:30:00,64.4,62.0,30.15,North,32767,-999.0,0.0,92,0.00,,,0.00,Wunderground v.1.15,2013-09-10 05:30:00,
2013-09-10 01:32:00,64.4,62.0,30.15,North,32767,-999.0,0.0,92,0.00,,,0.00,Wunderground v.1.15,2013-09-10 05:32:00,
2013-09-10 01:35:00,64.5,62.1,30.15,North,32767,-999.0,0.0,92,0.00,,,0.00,Wunderground v.1.15,2013-09-10 05:35:00,
2013-09-10 01:36:00,64.5,62.1,30.15,North,32767,-999.0,0.0,92,0.00,,,0.00,Wunderground v.1.15,2013-09-10 05:36:00,
2013-09-10 01:37:00,64.6,62.2,30.15,North,32767,-999.0,0.0,92,0.00,,,0.00,Wunderground v.1.15,2013-09-10 05:37:00,
2013-09-10 01:41:00,64.7,62.3,30.15,North,32767,-999.0,0.0,92,0.00,,,0.00,Wunderground v.1.15,2013-09-10 05:41:00,
2013-09-10 01:42:00,64.7,62.3,30.14,North,32767,-999.0,0.0,92,0.00,,,0.00,Wunderground v.1.15,2013-09-10 05:42:00,
2013-09-10 01:44:00,64.7,62.3,30.14,North,32767,-999.0,0.0,92,0.00,,,0.00,Wunderground v.1.15,2013-09-10 05:44:00,
2013-09-10 01:45:00,64.7,62.3,30.14,North,32767,-999.0,0.0,92,0.00,,,0.00,Wunderground v.1.15,2013-09-10 05:45:00,
2013-09-10 01:49:00,64.8,62.4,30.14,North,32767,-999.0,0.0,92,0.00,,,0.00,Wunderground v.1.15,2013-09-10 05:49:00,
2013-09-10 01:50:00,64.8,62.4,30.14,North,32767,-999.0,0.0,92,0.00,,,0.00,Wunderground v.1.15,2013-09-10 05:50:00,
2013-09-10 01:51:00,64.8,62.4,30.14,North,32767,-999.0,0.0,92,0.00,,,0.00,Wunderground v.1.15,2013-09-10 05:51:00,
2013-09-10 01:52:00,64.8,62.4,30.15,North,32767,-999.0,0.0,92,0.00,,,0.00,Wunderground v.1.15,2013-09-10 05:52:00,
2013-09-10 01:54:00,64.8,62.4,30.15,North,32767,-999.0,0.0,92,0.00,,,0.00,Wunderground v.1.15,2013-09-10 05:54:00,
2013-09-10 01:55:00,64.8,62.4,30.15,North,32767,-999.0,0.0,92,0.00,,,0.00,Wunderground v.1.15,2013-09-10 05:55:00,
2013-09-10 01:57:00,64.8,62.4,30.15,North,32767,-999.0,0.0,92,0.00,,,0.00,Wunderground v.1.15,2013-09-10 05:57:00,
2013-09-10 02:00:00,64.9,62.5,30.15,North,32767,-999.0,0.0,92,0.00,,,0.00,Wunderground v.1.15,2013-09-10 06:00:00,
2013-09-10 02:02:00,64.9,62.5,30.14,North,32767,-999.0,0.0,92,0.00,,,0.00,Wunderground v.1.15,2013-09-10 06:02:00,
2013-09-10 02:03:00,64.9,62.5,30.14,North,32767,-999.0,0.0,92,0.00,,,0.00,Wunderground v.1.15,2013-09-10 06:03:00,
2013-09-10 02:07:00,64.9,62.5,30.15,North,32767,-999.0,0.0,92,0.00,,,0.00,Wunderground v.1.15,2013-09-10 06:07:00,
2013-09-10 02:08:00,64.9,62.5,30.15,North,32767,-999.0,0.0,92,0.00,,,0.00,Wunderground v.1.15,2013-09-10 06:08:00,
2013-09-10 02:10:00,64.9,62.5,30.15,North,32767,-999.0,0.0,92,0.00,,,0.00,Wunderground v.1.15,2013-09-10 06:10:00,
2013-09-10 02:11:00,64.9,62.5,30.15,North,32767,-999.0,0.0,92,0.00,,,0.00,Wunderground v.1.15,2013-09-10 06:11:00,
2013-09-10 02:13:00,64.9,62.5,30.15,North,32767,-999.0,0.0,92,0.00,,,0.00,Wunderground v.1.15,2013-09-10 06:13:00,
2013-09-10 02:18:00,64.9,62.5,30.15,North,32767,-999.0,0.0,92,0.00,,,0.00,Wunderground v.1.15,2013-09-10 06:18:00,
2013-09-10 02:19:00,64.9,62.5,30.15,North,32767,-999.0,0.0,92,0.00,,,0.00,Wunderground v.1.15,2013-09-10 06:19:00,
2013-09-10 02:20:00,64.9,62.5,30.15,North,32767,-999.0,0.0,92,0.00,,,0.00,Wunderground v.1.15,2013-09-10 06:20:00,
2013-09-10 02:22:00,64.9,62.5,30.15,North,32767,-999.0,0.0,92,0.00,,,0.00,Wunderground v.1.15,2013-09-10 06:22:00,
2013-09-10 02:24:00,64.9,62.5,30.15,North,32767,-999.0,0.0,92,0.00,,,0.00,Wunderground v.1.15,2013-09-10 06:24:00,
2013-09-10 02:25:00,64.9,62.5,30.15,North,32767,-999.0,0.0,92,0.00,,,0.00,Wunderground v.1.15,2013-09-10 06:25:00,
2013-09-10 02:27:00,65.0,62.6,30.15,North,32767,-999.0,0.0,92,0.00,,,0.00,Wunderground v.1.15,2013-09-10 06:27:00,
2013-09-10 02:28:00,65.0,62.6,30.15,North,32767,-999.0,0.0,92,0.00,,,0.00,Wunderground v.1.15,2013-09-10 06:28:00,
2013-09-10 02:30:00,65.0,62.6,30.14,North,32767,-999.0,0.0,92,0.00,,,0.00,Wunderground v.1.15,2013-09-10 06:30:00,
2013-09-10 02:33:00,65.0,62.6,30.14,North,32767,-999.0,0.0,92,0.00,,,0.00,Wunderground v.1.15,2013-09-10 06:33:00,
2013-09-10 02:34:00,65.0,62.6,30.14,North,32767,-999.0,0.0,92,0.00,,,0.00,Wunderground v.1.15,2013-09-10 06:34:00,
2013-09-10 02:38:00,65.0,62.6,30.15,North,32767,-999.0,0.0,92,0.00,,,0.00,Wunderground v.1.15,2013-09-10 06:38:00,
2013-09-10 02:40:00,65.0,62.6,30.15,North,32767,-999.0,0.0,92,0.00,,,0.00,Wunderground v.1.15,2013-09-10 06:40:00,
2013-09-10 02:42:00,65.0,62.6,30.15,North,32767,-999.0,0.0,92,0.00,,,0.00,Wunderground v.1.15,2013-09-10 06:42:00,
2013-09-10 02:45:00,65.0,62.6,30.15,North,32767,-999.0,0.0,92,0.00,,,0.00,Wunderground v.1.15,2013-09-10 06:45:00,
2013-09-10 02:46:00,65.0,62.6,30.15,North,32767,-999.0,0.0,92,0.00,,,0.00,Wunderground v.1.15,2013-09-10 06:46:00,
2013-09-10 02:47:00,65.0,62.6,30.15,North,32767,-999.0,0.0,92,0.00,,,0.00,Wunderground v.1.15,2013-09-10 06:47:00,
2013-09-10 02:52:00,65.0,62.6,30.14,North,32767,-999.0,0.0,92,0.00,,,0.00,Wunderground v.1.15,2013-09-10 06:52:00,
2013-09-10 02:54:00,65.0,62.6,30.14,North,32767,-999.0,0.0,92,0.00,,,0.00,Wunderground v.1.15,2013-09-10 06:54:00,
2013-09-10 02:58:00,65.0,62.6,30.14,North,32767,-999.0,0.0,92,0.00,,,0.00,Wunderground v.1.15,2013-09-10 06:58:00,
2013-09-10 02:59:00,65.0,62.6,30.14,North,32767,-999.0,0.0,92,0.00,,,0.00,Wunderground v.1.15,2013-09-10 06:59:00,
2013-09-10 03:00:00,65.0,62.6,30.14,North,32767,-999.0,0.0,92,0.00,,,0.00,Wunderground v.1.15,2013-09-10 07:00:00,
2013-09-10 03:05:00,65.0,62.6,30.14,North,32767,-999.0,0.0,92,0.00,,,0.00,Wunderground v.1.15,2013-09-10 07:05:00,
2013-09-10 03:06:00,65.0,62.6,30.14,North,32767,-999.0,0.0,92,0.00,,,0.00,Wunderground v.1.15,2013-09-10 07:06:00,
2013-09-10 03:07:00,65.0,62.6,30.14,North,32767,-999.0,0.0,92,0.00,,,0.00,Wunderground v.1.15,2013-09-10 07:07:00,
2013-09-10 03:09:00,65.0,62.6,30.14,North,32767,-999.0,0.0,92,0.00,,,0.00,Wunderground v.1.15,2013-09-10 07:09:00,
2013-09-10 03:11:00,65.1,62.7,30.14,North,32767,-999.0,0.0,92,0.00,,,0.00,Wunderground v.1.15,2013-09-10 07:11:00,
2013-09-10 03:13:00,65.1,63.0,30.14,North,32767,-999.0,0.0,93,0.00,,,0.00,Wunderground v.1.15,2013-09-10 07:13:00,
2013-09-10 03:14:00,65.1,63.0,30.14,North,32767,-999.0,0.0,93,0.00,,,0.00,Wunderground v.1.15,2013-09-10 07:14:00,
2013-09-10 03:16:00,65.1,63.0,30.14,North,32767,-999.0,0.0,93,0.00,,,0.00,Wunderground v.1.15,2013-09-10 07:16:00,
2013-09-10 03:18:00,65.1,63.0,30.14,North,32767,-999.0,0.0,93,0.00,,,0.00,Wunderground v.1.15,2013-09-10 07:18:00,
2013-09-10 03:19:00,65.1,63.0,30.14,North,32767,-999.0,0.0,93,0.00,,,0.00,Wunderground v.1.15,2013-09-10 07:19:00,
2013-09-10 03:20:00,65.1,63.0,30.14,North,32767,-999.0,0.0,93,0.00,,,0.00,Wunderground v.1.15,2013-09-10 07:20:00,
2013-09-10 03:21:00,65.1,63.0,30.14,North,32767,-999.0,0.0,93,0.00,,,0.00,Wunderground v.1.15,2013-09-10 07:21:00,
2013-09-10 03:23:00,65.0,62.9,30.14,North,32767,-999.0,0.0,93,0.00,,,0.00,Wunderground v.1.15,2013-09-10 07:23:00,
2013-09-10 03:25:00,65.1,63.0,30.13,North,32767,-999.0,0.0,93,0.00,,,0.00,Wunderground v.1.15,2013-09-10 07:25:00,
2013-09-10 03:28:00,65.0,62.9,30.14,North,32767,-999.0,0.0,93,0.00,,,0.00,Wunderground v.1.15,2013-09-10 07:28:00,
2013-09-10 03:30:00,65.1,63.0,30.14,North,32767,-999.0,0.0,93,0.00,,,0.00,Wunderground v.1.15,2013-09-10 07:30:00,
2013-09-10 03:33:00,65.1,63.0,30.14,North,32767,-999.0,0.0,93,0.00,,,0.00,Wunderground v.1.15,2013-09-10 07:33:00,
2013-09-10 03:34:00,65.1,63.0,30.14,North,32767,-999.0,0.0,93,0.00,,,0.00,Wunderground v.1.15,2013-09-10 07:34:00,
2013-09-10 03:35:00,65.1,63.0,30.14,North,32767,-999.0,0.0,93,0.00,,,0.00,Wunderground v.1.15,2013-09-10 07:35:00,
2013-09-10 03:39:00,65.1,63.0,30.13,North,32767,-999.0,0.0,93,0.00,,,0.00,Wunderground v.1.15,2013-09-10 07:39:00,
2013-09-10 03:40:00,65.1,63.0,30.13,North,32767,-999.0,0.0,93,0.00,,,0.00,Wunderground v.1.15,2013-09-10 07:40:00,
2013-09-10 03:44:00,65.1,63.0,30.13,North,32767,-999.0,0.0,93,0.00,,,0.00,Wunderground v.1.15,2013-09-10 07:44:00,
2013-09-10 03:45:00,65.1,63.0,30.13,North,32767,-999.0,0.0,93,0.00,,,0.00,Wunderground v.1.15,2013-09-10 07:45:00,
2013-09-10 03:47:00,65.1,63.0,30.14,North,32767,-999.0,0.0,93,0.00,,,0.00,Wunderground v.1.15,2013-09-10 07:47:00,
2013-09-10 03:52:00,65.1,63.0,30.14,North,32767,-999.0,0.0,93,0.00,,,0.00,Wunderground v.1.15,2013-09-10 07:52:00,
2013-09-10 03:53:00,65.1,63.0,30.13,North,32767,-999.0,0.0,93,0.00,,,0.00,Wunderground v.1.15,2013-09-10 07:53:00,
2013-09-10 03:57:00,65.2,63.1,30.13,North,32767,-999.0,0.0,93,0.00,,,0.00,Wunderground v.1.15,2013-09-10 07:57:00,
2013-09-10 03:58:00,65.1,63.0,30.13,North,32767,-999.0,0.0,93,0.00,,,0.00,Wunderground v.1.15,2013-09-10 07:58:00,
2013-09-10 03:59:00,65.2,63.1,30.14,North,32767,-999.0,0.0,93,0.00,,,0.00,Wunderground v.1.15,2013-09-10 07:59:00,
2013-09-10 04:03:00,65.2,63.1,30.14,North,32767,-999.0,0.0,93,0.00,,,0.00,Wunderground v.1.15,2013-09-10 08:03:00,
2013-09-10 04:05:00,65.2,63.1,30.14,North,32767,-999.0,0.0,93,0.00,,,0.00,Wunderground v.1.15,2013-09-10 08:05:00,
2013-09-10 04:06:00,65.2,63.1,30.14,North,32767,-999.0,0.0,93,0.00,,,0.00,Wunderground v.1.15,2013-09-10 08:06:00,
2013-09-10 04:09:00,65.2,63.1,30.13,North,32767,-999.0,0.0,93,0.00,,,0.00,Wunderground v.1.15,2013-09-10 08:09:00,
2013-09-10 04:10:00,65.2,63.1,30.14,North,32767,-999.0,0.0,93,0.00,,,0.00,Wunderground v.1.15,2013-09-10 08:10:00,
2013-09-10 04:11:00,65.2,63.1,30.14,North,32767,-999.0,0.0,93,0.00,,,0.00,Wunderground v.1.15,2013-09-10 08:11:00,
2013-09-10 04:12:00,65.2,63.1,30.14,North,32767,-999.0,0.0,93,0.00,,,0.00,Wunderground v.1.15,2013-09-10 08:12:00,
2013-09-10 04:15:00,65.2,63.1,30.13,North,32767,-999.0,0.0,93,0.00,,,0.00,Wunderground v.1.15,2013-09-10 08:15:00,
2013-09-10 04:16:00,65.2,63.1,30.13,North,32767,-999.0,0.0,93,0.00,,,0.00,Wunderground v.1.15,2013-09-10 08:16:00,
2013-09-10 04:18:00,65.2,63.4,30.14,North,32767,-999.0,0.0,94,0.00,,,0.00,Wunderground v.1.15,2013-09-10 08:18:00,
2013-09-10 04:22:00,65.2,63.1,30.14,North,32767,-999.0,0.0,93,0.00,,,0.00,Wunderground v.1.15,2013-09-10 08:22:00,
2013-09-10 04:23:00,65.2,63.1,30.14,North,32767,-999.0,0.0,93,0.00,,,0.00,Wunderground v.1.15,2013-09-10 08:23:00,
2013-09-10 04:26:00,65.2,63.1,30.13,North,32767,-999.0,0.0,93,0.00,,,0.00,Wunderground v.1.15,2013-09-10 08:26:00,
2013-09-10 04:27:00,65.2,63.1,30.14,North,32767,-999.0,0.0,93,0.00,,,0.00,Wunderground v.1.15,2013-09-10 08:27:00,
2013-09-10 04:28:00,65.2,63.1,30.14,North,32767,-999.0,0.0,93,0.00,,,0.00,Wunderground v.1.15,2013-09-10 08:28:00,
2013-09-10 04:29:00,65.2,63.1,30.13,North,32767,-999.0,0.0,93,0.00,,,0.00,Wunderground v.1.15,2013-09-10 08:29:00,
2013-09-10 04:31:00,65.2,63.1,30.13,North,32767,-999.0,0.0,93,0.00,,,0.00,Wunderground v.1.15,2013-09-10 08:31:00,
2013-09-10 04:32:00,65.2,63.4,30.13,North,32767,-999.0,0.0,94,0.00,,,0.00,Wunderground v.1.15,2013-09-10 08:32:00,
2013-09-10 04:34:00,65.2,63.4,30.13,North,32767,-999.0,0.0,94,0.00,,,0.00,Wunderground v.1.15,2013-09-10 08:34:00,
2013-09-10 04:35:00,65.2,63.4,30.13,North,32767,-999.0,0.0,94,0.00,,,0.00,Wunderground v.1.15,2013-09-10 08:35:00,
2013-09-10 04:39:00,65.2,63.4,30.13,North,32767,-999.0,0.0,94,0.00,,,0.00,Wunderground v.1.15,2013-09-10 08:39:00,
2013-09-10 04:40:00,65.2,63.4,30.13,North,32767,-999.0,0.0,94,0.00,,,0.00,Wunderground v.1.15,2013-09-10 08:40:00,
2013-09-10 04:41:00,65.2,63.4,30.13,North,32767,-999.0,0.0,94,0.00,,,0.00,Wunderground v.1.15,2013-09-10 08:41:00,
2013-09-10 04:43:00,65.2,63.4,30.13,North,32767,-999.0,0.0,94,0.00,,,0.00,Wunderground v.1.15,2013-09-10 08:43:00,
2013-09-10 04:44:00,65.2,63.4,30.13,North,32767,-999.0,0.0,94,0.00,,,0.00,Wunderground v.1.15,2013-09-10 08:44:00,
2013-09-10 04:47:00,65.2,63.4,30.13,North,32767,-999.0,0.0,94,0.00,,,0.00,Wunderground v.1.15,2013-09-10 08:47:00,
2013-09-10 04:48:00,65.2,63.4,30.13,North,32767,-999.0,0.0,94,0.00,,,0.00,Wunderground v.1.15,2013-09-10 08:48:00,
2013-09-10 04:49:00,65.2,63.4,30.13,North,32767,-999.0,0.0,94,0.00,,,0.00,Wunderground v.1.15,2013-09-10 08:49:00,
2013-09-10 04:50:00,65.2,63.4,30.13,North,32767,-999.0,0.0,94,0.00,,,0.00,Wunderground v.1.15,2013-09-10 08:50:00,
2013-09-10 04:51:00,65.2,63.4,30.13,North,32767,-999.0,0.0,94,0.00,,,0.00,Wunderground v.1.15,2013-09-10 08:51:00,
2013-09-10 04:54:00,65.2,63.4,30.13,North,32767,-999.0,0.0,94,0.00,,,0.00,Wunderground v.1.15,2013-09-10 08:54:00,
2013-09-10 04:55:00,65.2,63.4,30.13,North,32767,-999.0,0.0,94,0.00,,,0.00,Wunderground v.1.15,2013-09-10 08:55:00,
2013-09-10 04:58:00,65.2,63.4,30.14,North,32767,-999.0,0.0,94,0.00,,,0.00,Wunderground v.1.15,2013-09-10 08:58:00,
2013-09-10 05:02:00,65.2,63.4,30.14,North,32767,-999.0,0.0,94,0.00,,,0.00,Wunderground v.1.15,2013-09-10 09:02:00,
2013-09-10 05:04:00,65.2,63.4,30.14,North,32767,-999.0,0.0,94,0.00,,,0.00,Wunderground v.1.15,2013-09-10 09:04:00,
2013-09-10 05:08:00,65.2,63.4,30.14,North,32767,-999.0,0.0,94,0.00,,,0.00,Wunderground v.1.15,2013-09-10 09:08:00,
2013-09-10 05:09:00,65.2,63.4,30.14,North,32767,-999.0,0.0,94,0.00,,,0.00,Wunderground v.1.15,2013-09-10 09:09:00,
2013-09-10 05:10:00,65.2,63.4,30.14,North,32767,-999.0,0.0,94,0.00,,,0.00,Wunderground v.1.15,2013-09-10 09:10:00,
2013-09-10 05:13:00,65.2,63.4,30.14,North,32767,-999.0,0.0,94,0.00,,,0.00,Wunderground v.1.15,2013-09-10 09:13:00,
2013-09-10 05:14:00,65.2,63.4,30.14,North,32767,-999.0,0.0,94,0.00,,,0.00,Wunderground v.1.15,2013-09-10 09:14:00,
2013-09-10 05:15:00,65.2,63.4,30.14,North,32767,-999.0,0.0,94,0.00,,,0.00,Wunderground v.1.15,2013-09-10 09:15:00,
2013-09-10 05:20:00,65.2,63.4,30.14,North,32767,-999.0,0.0,94,0.00,,,0.00,Wunderground v.1.15,2013-09-10 09:20:00,
2013-09-10 05:22:00,65.2,63.4,30.14,North,32767,-999.0,0.0,94,0.00,,,0.00,Wunderground v.1.15,2013-09-10 09:22:00,
2013-09-10 05:23:00,65.2,63.4,30.14,North,32767,-999.0,0.0,94,0.00,,,0.00,Wunderground v.1.15,2013-09-10 09:23:00,
2013-09-10 05:27:00,65.2,63.4,30.14,North,32767,-999.0,0.0,94,0.00,,,0.00,Wunderground v.1.15,2013-09-10 09:27:00,
2013-09-10 05:28:00,65.2,63.4,30.14,North,32767,-999.0,0.0,94,0.00,,,0.00,Wunderground v.1.15,2013-09-10 09:28:00,
2013-09-10 05:30:00,65.2,63.4,30.14,North,32767,-999.0,0.0,94,0.00,,,0.00,Wunderground v.1.15,2013-09-10 09:30:00,
2013-09-10 05:33:00,65.2,63.4,30.14,North,32767,-999.0,0.0,94,0.00,,,0.00,Wunderground v.1.15,2013-09-10 09:33:00,
2013-09-10 05:35:00,65.2,63.4,30.14,North,32767,-999.0,0.0,94,0.00,,,0.00,Wunderground v.1.15,2013-09-10 09:35:00,
2013-09-10 05:36:00,65.2,63.4,30.14,North,32767,-999.0,0.0,94,0.00,,,0.00,Wunderground v.1.15,2013-09-10 09:36:00,
2013-09-10 05:37:00,65.2,63.4,30.14,North,32767,-999.0,0.0,94,0.00,,,0.00,Wunderground v.1.15,2013-09-10 09:37:00,
2013-09-10 05:39:00,65.2,63.7,30.14,North,32767,-999.0,0.0,95,0.00,,,0.00,Wunderground v.1.15,2013-09-10 09:39:00,
2013-09-10 05:44:00,65.2,63.7,30.14,North,32767,-999.0,0.0,95,0.00,,,0.00,Wunderground v.1.15,2013-09-10 09:44:00,
2013-09-10 05:45:00,65.2,63.7,30.14,North,32767,-999.0,0.0,95,0.00,,,0.00,Wunderground v.1.15,2013-09-10 09:45:00,
2013-09-10 05:46:00,65.2,63.7,30.14,North,32767,-999.0,0.0,95,0.00,,,0.00,Wunderground v.1.15,2013-09-10 09:46:00,
2013-09-10 05:50:00,65.2,63.7,30.14,North,32767,-999.0,0.0,95,0.00,,,0.00,Wunderground v.1.15,2013-09-10 09:50:00,
2013-09-10 05:51:00,65.2,63.7,30.14,North,32767,-999.0,0.0,95,0.00,,,0.00,Wunderground v.1.15,2013-09-10 09:51:00,
2013-09-10 05:55:00,65.2,63.7,30.14,North,32767,-999.0,0.0,95,0.00,,,0.00,Wunderground v.1.15,2013-09-10 09:55:00,
2013-09-10 05:56:00,65.2,63.7,30.14,North,32767,-999.0,0.0,95,0.00,,,0.00,Wunderground v.1.15,2013-09-10 09:56:00,
2013-09-10 05:57:00,65.2,63.7,30.14,North,32767,-999.0,0.0,95,0.00,,,0.00,Wunderground v.1.15,2013-09-10 09:57:00,
2013-09-10 05:58:00,65.2,63.7,30.14,North,32767,-999.0,0.0,95,0.00,,,0.00,Wunderground v.1.15,2013-09-10 09:58:00,
2013-09-10 06:01:00,65.2,63.7,30.14,North,32767,-999.0,0.0,95,0.00,,,0.00,Wunderground v.1.15,2013-09-10 10:01:00,
2013-09-10 06:04:00,65.2,63.7,30.14,North,32767,-999.0,0.0,95,0.00,,,0.00,Wunderground v.1.15,2013-09-10 10:04:00,
2013-09-10 06:05:00,65.3,63.8,30.14,North,32767,-999.0,0.0,95,0.00,,,0.00,Wunderground v.1.15,2013-09-10 10:05:00,
2013-09-10 06:07:00,65.2,63.7,30.14,North,32767,-999.0,0.0,95,0.00,,,0.00,Wunderground v.1.15,2013-09-10 10:07:00,
2013-09-10 06:09:00,65.3,63.8,30.15,North,32767,-999.0,0.0,95,0.00,,,0.00,Wunderground v.1.15,2013-09-10 10:09:00,
2013-09-10 06:11:00,65.3,63.8,30.14,North,32767,-999.0,0.0,95,0.00,,,0.00,Wunderground v.1.15,2013-09-10 10:11:00,
2013-09-10 06:12:00,65.3,63.8,30.14,North,32767,-999.0,0.0,95,0.00,,,0.00,Wunderground v.1.15,2013-09-10 10:12:00,
2013-09-10 06:15:00,65.3,63.8,30.14,North,32767,-999.0,0.0,95,0.00,,,0.00,Wunderground v.1.15,2013-09-10 10:15:00,
2013-09-10 06:16:00,65.3,63.8,30.14,North,32767,-999.0,0.0,95,0.00,,,0.00,Wunderground v.1.15,2013-09-10 10:16:00,
2013-09-10 06:17:00,65.3,63.8,30.15,North,32767,-999.0,0.0,95,0.00,,,0.00,Wunderground v.1.15,2013-09-10 10:17:00,
2013-09-10 06:19:00,65.3,63.8,30.14,North,32767,-999.0,0.0,95,0.00,,,0.00,Wunderground v.1.15,2013-09-10 10:19:00,
2013-09-10 06:21:00,65.3,63.8,30.15,North,32767,-999.0,0.0,95,0.00,,,0.00,Wunderground v.1.15,2013-09-10 10:21:00,
2013-09-10 06:24:00,65.3,63.8,30.15,North,32767,-999.0,0.0,95,0.00,,,0.00,Wunderground v.1.15,2013-09-10 10:24:00,
2013-09-10 06:25:00,65.3,63.8,30.15,North,32767,-999.0,0.0,95,0.00,,,0.00,Wunderground v.1.15,2013-09-10 10:25:00,
2013-09-10 06:26:00,65.3,63.8,30.15,North,32767,-999.0,0.0,95,0.00,,,0.00,Wunderground v.1.15,2013-09-10 10:26:00,
2013-09-10 06:27:00,65.3,63.8,30.15,North,32767,-999.0,0.0,95,0.00,,,0.00,Wunderground v.1.15,2013-09-10 10:27:00,
2013-09-10 06:28:00,65.3,63.8,30.15,North,32767,-999.0,0.0,95,0.00,,,0.00,Wunderground v.1.15,2013-09-10 10:28:00,
2013-09-10 06:31:00,65.3,63.8,30.15,North,32767,-999.0,0.0,95,0.00,,,0.00,Wunderground v.1.15,2013-09-10 10:31:00,
2013-09-10 06:32:00,65.3,63.8,30.15,North,32767,-999.0,0.0,95,0.00,,,0.00,Wunderground v.1.15,2013-09-10 10:32:00,
2013-09-10 06:36:00,65.3,63.8,30.15,North,32767,-999.0,0.0,95,0.00,,,0.00,Wunderground v.1.15,2013-09-10 10:36:00,
2013-09-10 06:37:00,65.3,63.8,30.15,North,32767,-999.0,0.0,95,0.00,,,0.00,Wunderground v.1.15,2013-09-10 10:37:00,
2013-09-10 06:39:00,65.3,63.8,30.15,North,32767,-999.0,0.0,95,0.00,,,0.00,Wunderground v.1.15,2013-09-10 10:39:00,
2013-09-10 06:40:00,65.3,63.8,30.15,North,32767,-999.0,0.0,95,0.00,,,0.00,Wunderground v.1.15,2013-09-10 10:40:00,
2013-09-10 06:41:00,65.3,63.8,30.15,North,32767,-999.0,0.0,95,0.00,,,0.00,Wunderground v.1.15,2013-09-10 10:41:00,
2013-09-10 06:45:00,65.3,63.8,30.15,North,32767,-999.0,0.0,95,0.00,,,0.00,Wunderground v.1.15,2013-09-10 10:45:00,
2013-09-10 06:46:00,65.3,63.8,30.15,North,32767,-999.0,0.0,95,0.00,,,0.00,Wunderground v.1.15,2013-09-10 10:46:00,
2013-09-10 06:48:00,65.3,63.8,30.15,North,32767,-999.0,0.0,95,0.00,,,0.00,Wunderground v.1.15,2013-09-10 10:48:00,
2013-09-10 06:49:00,65.3,63.8,30.15,North,32767,-999.0,0.0,95,0.00,,,0.00,Wunderground v.1.15,2013-09-10 10:49:00,
2013-09-10 06:51:00,65.3,63.8,30.15,North,32767,-999.0,0.0,95,0.00,,,0.00,Wunderground v.1.15,2013-09-10 10:51:00,
2013-09-10 06:53:00,65.3,63.8,30.15,North,32767,-999.0,0.0,95,0.00,,,0.00,Wunderground v.1.15,2013-09-10 10:53:00,
2013-09-10 06:56:00,65.3,64.1,30.15,North,32767,-999.0,0.0,96,0.00,,,0.00,Wunderground v.1.15,2013-09-10 10:56:00,
2013-09-10 07:00:00,65.4,64.2,30.15,North,32767,-999.0,0.0,96,0.00,,,0.00,Wunderground v.1.15,2013-09-10 11:00:00,
2013-09-10 07:03:00,65.4,64.2,30.15,North,32767,-999.0,0.0,96,0.00,,,0.00,Wunderground v.1.15,2013-09-10 11:03:00,
2013-09-10 07:05:00,65.4,64.2,30.15,North,32767,-999.0,0.0,96,0.00,,,0.00,Wunderground v.1.15,2013-09-10 11:05:00,
2013-09-10 07:08:00,65.4,64.2,30.15,North,32767,-999.0,0.0,96,0.00,,,0.00,Wunderground v.1.15,2013-09-10 11:08:00,
2013-09-10 07:09:00,65.5,64.3,30.15,North,32767,-999.0,0.0,96,0.00,,,0.00,Wunderground v.1.15,2013-09-10 11:09:00,
2013-09-10 07:10:00,65.5,64.3,30.15,North,32767,-999.0,0.0,96,0.00,,,0.00,Wunderground v.1.15,2013-09-10 11:10:00,
2013-09-10 07:13:00,65.5,64.3,30.15,North,32767,-999.0,0.0,96,0.00,,,0.00,Wunderground v.1.15,2013-09-10 11:13:00,
2013-09-10 07:14:00,65.5,64.3,30.15,North,32767,-999.0,0.0,96,0.00,,,0.00,Wunderground v.1.15,2013-09-10 11:14:00,
2013-09-10 07:16:00,65.6,64.4,30.15,North,32767,-999.0,0.0,96,0.00,,,0.00,Wunderground v.1.15,2013-09-10 11:16:00,
2013-09-10 07:17:00,65.6,64.4,30.15,North,32767,-999.0,0.0,96,0.00,,,0.00,Wunderground v.1.15,2013-09-10 11:17:00,
2013-09-10 07:21:00,65.6,64.4,30.14,North,32767,-999.0,0.0,96,0.00,,,0.00,Wunderground v.1.15,2013-09-10 11:21:00,
2013-09-10 07:22:00,65.6,64.4,30.14,North,32767,-999.0,0.0,96,0.00,,,0.00,Wunderground v.1.15,2013-09-10 11:22:00,
2013-09-10 07:24:00,65.6,64.4,30.14,North,32767,-999.0,0.0,96,0.00,,,0.00,Wunderground v.1.15,2013-09-10 11:24:00,
2013-09-10 07:27:00,65.7,64.5,30.14,North,32767,-999.0,0.0,96,0.00,,,0.00,Wunderground v.1.15,2013-09-10 11:27:00,
2013-09-10 07:29:00,65.7,64.5,30.14,North,32767,-999.0,0.0,96,0.00,,,0.00,Wunderground v.1.15,2013-09-10 11:29:00,
2013-09-10 07:30:00,65.7,64.5,30.14,North,32767,-999.0,0.0,96,0.00,,,0.00,Wunderground v.1.15,2013-09-10 11:30:00,
2013-09-10 07:33:00,65.8,64.6,30.14,North,32767,-999.0,0.0,96,0.00,,,0.00,Wunderground v.1.15,2013-09-10 11:33:00,
2013-09-10 07:34:00,65.8,64.6,30.14,North,32767,-999.0,0.0,96,0.00,,,0.00,Wunderground v.1.15,2013-09-10 11:34:00,
2013-09-10 07:35:00,65.8,64.6,30.14,North,32767,-999.0,0.0,96,0.00,,,0.00,Wunderground v.1.15,2013-09-10 11:35:00,
2013-09-10 07:40:00,65.8,64.6,30.14,North,32767,-999.0,0.0,96,0.00,,,0.00,Wunderground v.1.15,2013-09-10 11:40:00,
2013-09-10 07:41:00,65.8,64.6,30.13,North,32767,-999.0,0.0,96,0.00,,,0.00,Wunderground v.1.15,2013-09-10 11:41:00,
2013-09-10 07:43:00,65.9,64.7,30.13,North,32767,-999.0,0.0,96,0.00,,,0.00,Wunderground v.1.15,2013-09-10 11:43:00,
2013-09-10 07:44:00,65.9,64.7,30.13,North,32767,-999.0,0.0,96,0.00,,,0.00,Wunderground v.1.15,2013-09-10 11:44:00,
2013-09-10 07:47:00,65.9,64.7,30.13,North,32767,-999.0,0.0,96,0.00,,,0.00,Wunderground v.1.15,2013-09-10 11:47:00,
2013-09-10 07:49:00,65.9,64.7,30.14,North,32767,-999.0,0.0,96,0.00,,,0.00,Wunderground v.1.15,2013-09-10 11:49:00,
2013-09-10 07:51:00,65.9,64.7,30.14,North,32767,-999.0,0.0,96,0.00,,,0.00,Wunderground v.1.15,2013-09-10 11:51:00,
2013-09-10 07:52:00,66.0,64.8,30.14,North,32767,-999.0,0.0,96,0.00,,,0.00,Wunderground v.1.15,2013-09-10 11:52:00,
2013-09-10 07:53:00,66.0,64.8,30.14,North,32767,-999.0,0.0,96,0.00,,,0.00,Wunderground v.1.15,2013-09-10 11:53:00,
2013-09-10 07:56:00,66.0,64.8,30.14,North,32767,-999.0,0.0,96,0.00,,,0.00,Wunderground v.1.15,2013-09-10 11:56:00,
2013-09-10 07:57:00,66.0,64.8,30.14,North,32767,-999.0,0.0,96,0.00,,,0.00,Wunderground v.1.15,2013-09-10 11:57:00,
2013-09-10 08:02:00,66.0,64.8,30.14,North,32767,-999.0,0.0,96,0.00,,,0.00,Wunderground v.1.15,2013-09-10 12:02:00,
2013-09-10 08:03:00,66.1,64.9,30.15,North,32767,-999.0,0.0,96,0.00,,,0.00,Wunderground v.1.15,2013-09-10 12:03:00,
2013-09-10 08:04:00,66.1,64.9,30.15,North,32767,-999.0,0.0,96,0.00,,,0.00,Wunderground v.1.15,2013-09-10 12:04:00,
2013-09-10 08:08:00,66.1,64.9,30.15,North,32767,-999.0,0.0,96,0.00,,,0.00,Wunderground v.1.15,2013-09-10 12:08:00,
2013-09-10 08:09:00,66.1,64.9,30.15,North,32767,-999.0,0.0,96,0.00,,,0.00,Wunderground v.1.15,2013-09-10 12:09:00,
2013-09-10 08:11:00,66.1,64.9,30.14,North,32767,-999.0,0.0,96,0.00,,,0.00,Wunderground v.1.15,2013-09-10 12:11:00,
2013-09-10 08:12:00,66.1,64.9,30.14,North,32767,-999.0,0.0,96,0.00,,,0.00,Wunderground v.1.15,2013-09-10 12:12:00,
2013-09-10 08:16:00,66.2,65.0,30.14,North,32767,-999.0,0.0,96,0.00,,,0.00,Wunderground v.1.15,2013-09-10 12:16:00,
2013-09-10 08:17:00,66.2,65.0,30.14,North,32767,-999.0,0.0,96,0.00,,,0.00,Wunderground v.1.15,2013-09-10 12:17:00,
2013-09-10 08:18:00,66.2,65.0,30.14,North,32767,-999.0,0.0,96,0.00,,,0.00,Wunderground v.1.15,2013-09-10 12:18:00,
2013-09-10 08:20:00,66.2,65.3,30.14,North,32767,-999.0,0.0,97,0.00,,,0.00,Wunderground v.1.15,2013-09-10 12:20:00,
2013-09-10 08:21:00,66.2,65.3,30.14,North,32767,-999.0,0.0,97,0.00,,,0.00,Wunderground v.1.15,2013-09-10 12:21:00,
2013-09-10 08:23:00,66.3,65.4,30.14,North,32767,-999.0,0.0,97,0.00,,,0.00,Wunderground v.1.15,2013-09-10 12:23:00,
2013-09-10 08:26:00,66.4,65.5,30.13,North,32767,-999.0,0.0,97,0.00,,,0.00,Wunderground v.1.15,2013-09-10 12:26:00,
2013-09-10 08:28:00,66.4,65.5,30.14,North,32767,-999.0,0.0,97,0.00,,,0.00,Wunderground v.1.15,2013-09-10 12:28:00,
2013-09-10 08:30:00,66.5,65.6,30.14,North,32767,-999.0,0.0,97,0.00,,,0.00,Wunderground v.1.15,2013-09-10 12:30:00,
2013-09-10 08:31:00,66.5,65.6,30.14,North,32767,-999.0,0.0,97,0.00,,,0.00,Wunderground v.1.15,2013-09-10 12:31:00,
2013-09-10 08:32:00,66.6,65.7,30.14,North,32767,-999.0,0.0,97,0.00,,,0.00,Wunderground v.1.15,2013-09-10 12:32:00,
2013-09-10 08:34:00,66.6,65.7,30.14,North,32767,-999.0,0.0,97,0.00,,,0.00,Wunderground v.1.15,2013-09-10 12:34:00,
2013-09-10 08:35:00,66.6,65.7,30.14,North,32767,-999.0,0.0,97,0.00,,,0.00,Wunderground v.1.15,2013-09-10 12:35:00,
2013-09-10 08:37:00,66.7,65.8,30.14,North,32767,-999.0,0.0,97,0.00,,,0.00,Wunderground v.1.15,2013-09-10 12:37:00,
2013-09-10 08:40:00,66.8,65.9,30.14,North,32767,-999.0,0.0,97,0.00,,,0.00,Wunderground v.1.15,2013-09-10 12:40:00,
2013-09-10 08:41:00,66.8,65.9,30.14,North,32767,-999.0,0.0,97,0.00,,,0.00,Wunderground v.1.15,2013-09-10 12:41:00,
2013-09-10 08:43:00,66.9,66.0,30.14,North,32767,-999.0,0.0,97,0.00,,,0.00,Wunderground v.1.15,2013-09-10 12:43:00,
2013-09-10 08:47:00,67.0,66.1,30.15,North,32767,-999.0,0.0,97,0.00,,,0.00,Wunderground v.1.15,2013-09-10 12:47:00,
2013-09-10 08:49:00,67.0,66.1,30.15,North,32767,-999.0,0.0,97,0.00,,,0.00,Wunderground v.1.15,2013-09-10 12:49:00,
2013-09-10 08:51:00,67.1,66.2,30.15,North,32767,-999.0,0.0,97,0.00,,,0.00,Wunderground v.1.15,2013-09-10 12:51:00,
2013-09-10 08:55:00,67.2,66.3,30.15,North,32767,-999.0,0.0,97,0.00,,,0.00,Wunderground v.1.15,2013-09-10 12:55:00,
2013-09-10 08:59:00,67.2,66.3,30.16,North,32767,-999.0,0.0,97,0.00,,,0.00,Wunderground v.1.15,2013-09-10 12:59:00,
2013-09-10 09:01:00,67.3,66.4,30.16,North,32767,-999.0,0.0,97,0.00,,,0.00,Wunderground v.1.15,2013-09-10 13:01:00,
2013-09-10 09:03:00,67.3,66.4,30.16,North,32767,-999.0,0.0,97,0.00,,,0.00,Wunderground v.1.15,2013-09-10 13:03:00,
2013-09-10 09:04:00,67.3,66.4,30.16,North,32767,-999.0,0.0,97,0.00,,,0.00,Wunderground v.1.15,2013-09-10 13:04:00,
2013-09-10 09:06:00,67.4,66.5,30.15,North,32767,-999.0,0.0,97,0.00,,,0.00,Wunderground v.1.15,2013-09-10 13:06:00,
2013-09-10 09:09:00,67.5,66.6,30.15,North,32767,-999.0,0.0,97,0.00,,,0.00,Wunderground v.1.15,2013-09-10 13:09:00,
2013-09-10 09:11:00,67.5,66.6,30.16,North,32767,-999.0,0.0,97,0.00,,,0.00,Wunderground v.1.15,2013-09-10 13:11:00,
2013-09-10 09:15:00,67.6,66.7,30.17,North,32767,-999.0,0.0,97,0.00,,,0.00,Wunderground v.1.15,2013-09-10 13:15:00,
2013-09-10 09:16:00,67.6,66.7,30.17,North,32767,-999.0,0.0,97,0.00,,,0.00,Wunderground v.1.15,2013-09-10 13:16:00,
2013-09-10 09:18:00,67.6,66.7,30.17,North,32767,-999.0,0.0,97,0.00,,,0.00,Wunderground v.1.15,2013-09-10 13:18:00,
2013-09-10 09:21:00,67.7,66.8,30.16,North,32767,-999.0,0.0,97,0.00,,,0.00,Wunderground v.1.15,2013-09-10 13:21:00,
2013-09-10 09:23:00,67.8,66.9,30.16,North,32767,-999.0,0.0,97,0.00,,,0.00,Wunderground v.1.15,2013-09-10 13:23:00,
2013-09-10 09:25:00,67.8,66.9,30.16,North,32767,-999.0,0.0,97,0.00,,,0.00,Wunderground v.1.15,2013-09-10 13:25:00,
2013-09-10 09:27:00,67.9,67.0,30.16,North,32767,-999.0,0.0,97,0.00,,,0.00,Wunderground v.1.15,2013-09-10 13:27:00,
2013-09-10 09:30:00,67.9,67.0,30.16,North,32767,-999.0,0.0,97,0.00,,,0.00,Wunderground v.1.15,2013-09-10 13:30:00,
2013-09-10 09:32:00,68.0,67.1,30.16,North,32767,-999.0,0.0,97,0.00,,,0.00,Wunderground v.1.15,2013-09-10 13:32:00,
2013-09-10 09:33:00,68.0,67.1,30.15,North,32767,-999.0,0.0,97,0.00,,,0.00,Wunderground v.1.15,2013-09-10 13:33:00,
2013-09-10 09:36:00,68.1,67.2,30.15,North,32767,-999.0,0.0,97,0.00,,,0.00,Wunderground v.1.15,2013-09-10 13:36:00,
2013-09-10 09:38:00,68.1,67.2,30.16,North,32767,-999.0,0.0,97,0.00,,,0.00,Wunderground v.1.15,2013-09-10 13:38:00,
2013-09-10 09:39:00,68.1,67.2,30.16,North,32767,-999.0,0.0,97,0.00,,,0.00,Wunderground v.1.15,2013-09-10 13:39:00,
2013-09-10 09:43:00,68.2,67.3,30.15,North,32767,-999.0,0.0,97,0.00,,,0.00,Wunderground v.1.15,2013-09-10 13:43:00,
2013-09-10 09:44:00,68.2,67.3,30.15,North,32767,-999.0,0.0,97,0.00,,,0.00,Wunderground v.1.15,2013-09-10 13:44:00,
2013-09-10 09:45:00,68.2,67.3,30.15,North,32767,-999.0,0.0,97,0.00,,,0.00,Wunderground v.1.15,2013-09-10 13:45:00,
2013-09-10 09:49:00,68.3,67.4,30.16,North,32767,-999.0,0.0,97,0.00,,,0.00,Wunderground v.1.15,2013-09-10 13:49:00,
2013-09-10 09:50:00,68.3,67.4,30.16,North,32767,-999.0,0.0,97,0.00,,,0.00,Wunderground v.1.15,2013-09-10 13:50:00,
2013-09-10 09:51:00,68.3,67.4,30.16,North,32767,-999.0,0.0,97,0.00,,,0.00,Wunderground v.1.15,2013-09-10 13:51:00,
2013-09-10 09:54:00,68.4,67.5,30.16,North,32767,-999.0,0.0,97,0.00,,,0.00,Wunderground v.1.15,2013-09-10 13:54:00,
2013-09-10 09:55:00,68.4,67.5,30.16,North,32767,-999.0,0.0,97,0.00,,,0.00,Wunderground v.1.15,2013-09-10 13:55:00,
2013-09-10 09:56:00,68.4,67.5,30.16,North,32767,-999.0,0.0,97,0.00,,,0.00,Wunderground v.1.15,2013-09-10 13:56:00,
2013-09-10 09:57:00,68.4,67.5,30.16,North,32767,-999.0,0.0,97,0.00,,,0.00,Wunderground v.1.15,2013-09-10 13:57:00,
2013-09-10 10:00:00,68.5,67.9,30.16,North,32767,-999.0,0.0,98,0.00,,,0.00,Wunderground v.1.15,2013-09-10 14:00:00,
2013-09-10 10:01:00,68.5,67.9,30.16,North,32767,-999.0,0.0,98,0.00,,,0.00,Wunderground v.1.15,2013-09-10 14:01:00,
2013-09-10 10:02:00,68.5,67.9,30.16,North,32767,-999.0,0.0,98,0.00,,,0.00,Wunderground v.1.15,2013-09-10 14:02:00,
2013-09-10 10:05:00,68.5,67.9,30.17,North,32767,-999.0,0.0,98,0.00,,,0.00,Wunderground v.1.15,2013-09-10 14:05:00,
2013-09-10 10:07:00,68.6,68.0,30.17,North,32767,-999.0,0.0,98,0.00,,,0.00,Wunderground v.1.15,2013-09-10 14:07:00,
2013-09-10 10:10:00,68.6,68.0,30.16,North,32767,-999.0,0.0,98,0.00,,,0.00,Wunderground v.1.15,2013-09-10 14:10:00,
2013-09-10 10:13:00,68.6,68.0,30.16,North,32767,-999.0,0.0,98,0.00,,,0.00,Wunderground v.1.15,2013-09-10 14:13:00,
2013-09-10 10:15:00,68.7,68.1,30.17,North,32767,-999.0,0.0,98,0.00,,,0.00,Wunderground v.1.15,2013-09-10 14:15:00,
2013-09-10 10:18:00,68.8,67.9,30.17,North,32767,-999.0,0.0,97,0.00,,,0.00,Wunderground v.1.15,2013-09-10 14:18:00,
2013-09-10 10:20:00,68.8,67.9,30.17,North,32767,-999.0,0.0,97,0.00,,,0.00,Wunderground v.1.15,2013-09-10 14:20:00,
2013-09-10 10:23:00,68.8,67.9,30.17,North,32767,-999.0,0.0,97,0.00,,,0.00,Wunderground v.1.15,2013-09-10 14:23:00,
2013-09-10 10:24:00,68.8,67.9,30.17,North,32767,-999.0,0.0,97,0.00,,,0.00,Wunderground v.1.15,2013-09-10 14:24:00,
2013-09-10 10:25:00,68.8,67.9,30.17,North,32767,-999.0,0.0,97,0.00,,,0.00,Wunderground v.1.15,2013-09-10 14:25:00,
2013-09-10 10:26:00,68.8,67.9,30.17,North,32767,-999.0,0.0,97,0.00,,,0.00,Wunderground v.1.15,2013-09-10 14:26:00,
2013-09-10 10:29:00,68.8,67.9,30.16,North,32767,-999.0,0.0,97,0.00,,,0.00,Wunderground v.1.15,2013-09-10 14:29:00,
2013-09-10 10:31:00,68.9,68.0,30.16,North,32767,-999.0,0.0,97,0.00,,,0.00,Wunderground v.1.15,2013-09-10 14:31:00,
2013-09-10 10:32:00,68.9,68.0,30.16,North,32767,-999.0,0.0,97,0.00,,,0.00,Wunderground v.1.15,2013-09-10 14:32:00,
2013-09-10 10:35:00,69.0,68.1,30.15,North,32767,-999.0,0.0,97,0.00,,,0.00,Wunderground v.1.15,2013-09-10 14:35:00,
2013-09-10 10:36:00,69.0,68.1,30.15,North,32767,-999.0,0.0,97,0.00,,,0.00,Wunderground v.1.15,2013-09-10 14:36:00,
2013-09-10 10:37:00,69.0,68.1,30.15,North,32767,-999.0,0.0,97,0.00,,,0.00,Wunderground v.1.15,2013-09-10 14:37:00,
2013-09-10 10:39:00,69.1,68.5,30.15,North,32767,-999.0,0.0,98,0.00,,,0.00,Wunderground v.1.15,2013-09-10 14:39:00,
2013-09-10 10:40:00,69.1,68.5,30.15,North,32767,-999.0,0.0,98,0.00,,,0.00,Wunderground v.1.15,2013-09-10 14:40:00,
2013-09-10 10:41:00,69.1,68.5,30.15,North,32767,-999.0,0.0,98,0.00,,,0.00,Wunderground v.1.15,2013-09-10 14:41:00,
2013-09-10 10:42:00,69.2,68.6,30.15,North,32767,-999.0,0.0,98,0.00,,,0.00,Wunderground v.1.15,2013-09-10 14:42:00,
2013-09-10 10:43:00,69.2,68.6,30.15,North,32767,-999.0,0.0,98,0.00,,,0.00,Wunderground v.1.15,2013-09-10 14:43:00,
2013-09-10 10:47:00,69.3,68.7,30.16,North,32767,-999.0,0.0,98,0.00,,,0.00,Wunderground v.1.15,2013-09-10 14:47:00,
2013-09-10 10:49:00,69.4,68.8,30.16,North,32767,-999.0,0.0,98,0.00,,,0.00,Wunderground v.1.15,2013-09-10 14:49:00,
2013-09-10 10:52:00,69.5,68.6,30.15,North,32767,-999.0,0.0,97,0.00,,,0.00,Wunderground v.1.15,2013-09-10 14:52:00,
2013-09-10 10:53:00,69.6,68.7,30.15,North,32767,-999.0,0.0,97,0.00,,,0.00,Wunderground v.1.15,2013-09-10 14:53:00,
2013-09-10 10:54:00,69.6,68.7,30.15,North,32767,-999.0,0.0,97,0.00,,,0.00,Wunderground v.1.15,2013-09-10 14:54:00,
2013-09-10 10:59:00,69.8,68.9,30.15,North,32767,-999.0,0.0,97,0.00,,,0.00,Wunderground v.1.15,2013-09-10 14:59:00,
2013-09-10 11:01:00,69.8,69.2,30.15,North,32767,-999.0,0.0,98,0.00,,,0.00,Wunderground v.1.15,2013-09-10 15:01:00,
2013-09-10 11:03:00,69.9,69.3,30.15,North,32767,-999.0,0.0,98,0.00,,,0.00,Wunderground v.1.15,2013-09-10 15:03:00,
2013-09-10 11:04:00,70.0,69.4,30.15,North,32767,-999.0,0.0,98,0.00,,,0.00,Wunderground v.1.15,2013-09-10 15:04:00,
2013-09-10 11:09:00,70.2,69.6,30.15,North,32767,-999.0,0.0,98,0.00,,,0.00,Wunderground v.1.15,2013-09-10 15:09:00,
2013-09-10 11:10:00,70.2,69.6,30.15,North,32767,-999.0,0.0,98,0.00,,,0.00,Wunderground v.1.15,2013-09-10 15:10:00,
2013-09-10 11:15:00,70.5,69.9,30.14,North,32767,-999.0,0.0,98,0.00,,,0.00,Wunderground v.1.15,2013-09-10 15:15:00,
2013-09-10 11:16:00,70.6,70.0,30.14,North,32767,-999.0,0.0,98,0.00,,,0.00,Wunderground v.1.15,2013-09-10 15:16:00,
2013-09-10 11:17:00,70.6,70.0,30.14,North,32767,-999.0,0.0,98,0.00,,,0.00,Wunderground v.1.15,2013-09-10 15:17:00,
2013-09-10 11:21:00,70.9,70.0,30.14,North,32767,-999.0,0.0,97,0.00,,,0.00,Wunderground v.1.15,2013-09-10 15:21:00,
2013-09-10 11:22:00,70.9,70.0,30.14,North,32767,-999.0,0.0,97,0.00,,,0.00,Wunderground v.1.15,2013-09-10 15:22:00,
2013-09-10 11:26:00,71.2,70.3,30.13,North,32767,-999.0,0.0,97,0.00,,,0.00,Wunderground v.1.15,2013-09-10 15:26:00,
2013-09-10 11:31:00,72.0,71.1,30.13,North,32767,-999.0,0.0,97,0.00,,,0.00,Wunderground v.1.15,2013-09-10 15:31:00,
2013-09-10 11:32:00,72.1,70.9,30.13,North,32767,-999.0,0.0,96,0.00,,,0.00,Wunderground v.1.15,2013-09-10 15:32:00,
2013-09-10 11:35:00,72.5,71.0,30.12,North,32767,-999.0,0.0,95,0.00,,,0.00,Wunderground v.1.15,2013-09-10 15:35:00,
2013-09-10 11:37:00,72.8,71.0,30.12,North,32767,-999.0,0.0,94,0.00,,,0.00,Wunderground v.1.15,2013-09-10 15:37:00,
2013-09-10 11:38:00,73.0,71.2,30.12,North,32767,-999.0,0.0,94,0.00,,,0.00,Wunderground v.1.15,2013-09-10 15:38:00,
2013-09-10 11:41:00,73.2,70.7,30.12,North,32767,-999.0,0.0,92,0.00,,,0.00,Wunderground v.1.15,2013-09-10 15:41:00,
2013-09-10 11:43:00,73.6,71.1,30.13,North,32767,-999.0,0.0,92,0.00,,,0.00,Wunderground v.1.15,2013-09-10 15:43:00,
2013-09-10 11:45:00,73.8,71.0,30.12,North,32767,-999.0,0.0,91,0.00,,,0.00,Wunderground v.1.15,2013-09-10 15:45:00,
2013-09-10 11:49:00,74.1,71.0,30.12,North,32767,-999.0,0.0,90,0.00,,,0.00,Wunderground v.1.15,2013-09-10 15:49:00,
2013-09-10 11:50:00,74.2,71.1,30.12,North,32767,-999.0,0.0,90,0.00,,,0.00,Wunderground v.1.15,2013-09-10 15:50:00,
2013-09-10 11:52:00,74.4,71.3,30.12,SSE,162,0.0,0.0,90,0.00,,,0.00,Wunderground v.1.15,2013-09-10 15:52:00,
2013-09-10 11:53:00,74.6,71.1,30.12,SSE,157,0.0,0.0,89,0.00,,,0.00,Wunderground v.1.15,2013-09-10 15:53:00,
2013-09-10 11:55:00,74.8,71.3,30.12,South,175,0.0,0.0,89,0.00,,,0.00,Wunderground v.1.15,2013-09-10 15:55:00,
2013-09-10 11:56:00,74.8,71.3,30.12,South,175,0.0,0.0,89,0.00,,,0.00,Wunderground v.1.15,2013-09-10 15:56:00,
2013-09-10 11:58:00,74.9,71.4,30.12,South,175,0.0,0.0,89,0.00,,,0.00,Wunderground v.1.15,2013-09-10 15:58:00,
2013-09-10 11:59:00,75.0,71.5,30.13,SSE,167,0.0,0.0,89,0.00,,,0.00,Wunderground v.1.15,2013-09-10 15:59:00,
2013-09-10 12:02:00,74.8,70.7,30.13,SSE,165,0.0,0.0,87,0.00,,,0.00,Wunderground v.1.15,2013-09-10 16:02:00,
2013-09-10 12:04:00,74.7,70.6,30.14,South,169,0.0,0.0,87,0.00,,,0.00,Wunderground v.1.15,2013-09-10 16:04:00,
2013-09-10 12:05:00,74.7,70.9,30.14,SSE,168,0.0,0.0,88,0.00,,,0.00,Wunderground v.1.15,2013-09-10 16:05:00,
2013-09-10 12:09:00,74.9,71.1,30.14,South,171,0.0,0.0,88,0.00,,,0.00,Wunderground v.1.15,2013-09-10 16:09:00,
2013-09-10 12:11:00,74.9,71.1,30.14,South,171,0.0,0.0,88,0.00,,,0.00,Wunderground v.1.15,2013-09-10 16:11:00,
2013-09-10 12:12:00,75.1,71.3,30.14,South,171,0.0,0.0,88,0.00,,,0.00,Wunderground v.1.15,2013-09-10 16:12:00,
2013-09-10 12:14:00,75.1,71.0,30.14,South,171,0.0,0.0,87,0.00,,,0.00,Wunderground v.1.15,2013-09-10 16:14:00,
2013-09-10 12:17:00,75.1,71.0,30.14,South,171,0.0,0.0,87,0.00,,,0.00,Wunderground v.1.15,2013-09-10 16:17:00,
2013-09-10 12:19:00,75.1,71.3,30.14,South,171,0.0,0.0,88,0.00,,,0.00,Wunderground v.1.15,2013-09-10 16:19:00,
2013-09-10 12:21:00,75.2,71.4,30.14,South,171,0.0,0.0,88,0.00,,,0.00,Wunderground v.1.15,2013-09-10 16:21:00,
2013-09-10 12:25:00,75.6,71.8,30.14,South,170,0.0,0.0,88,0.00,,,0.00,Wunderground v.1.15,2013-09-10 16:25:00,
2013-09-10 12:28:00,76.2,72.4,30.14,South,170,0.0,0.0,88,0.00,,,0.00,Wunderground v.1.15,2013-09-10 16:28:00,
2013-09-10 12:30:00,76.6,72.1,30.14,South,170,0.0,0.0,86,0.00,,,0.00,Wunderground v.1.15,2013-09-10 16:30:00,
2013-09-10 12:33:00,77.1,72.6,30.13,South,174,0.0,0.0,86,0.00,,,0.00,Wunderground v.1.15,2013-09-10 16:33:00,
2013-09-10 12:36:00,77.7,72.5,30.13,WSW,238,0.0,0.0,84,0.00,,,0.00,Wunderground v.1.15,2013-09-10 16:36:00,
2013-09-10 12:39:00,78.2,72.6,30.12,SSE,160,0.0,0.0,83,0.00,,,0.00,Wunderground v.1.15,2013-09-10 16:39:00,
2013-09-10 12:40:00,78.3,73.1,30.12,SSE,160,0.0,0.0,84,0.00,,,0.00,Wunderground v.1.15,2013-09-10 16:40:00,
2013-09-10 12:42:00,78.5,73.3,30.12,WSW,256,0.0,0.0,84,0.00,,,0.00,Wunderground v.1.15,2013-09-10 16:42:00,
2013-09-10 12:43:00,78.5,72.9,30.12,SSE,167,0.0,0.0,83,0.00,,,0.00,Wunderground v.1.15,2013-09-10 16:43:00,
2013-09-10 12:46:00,78.1,72.5,30.12,SSE,167,0.0,0.0,83,0.00,,,0.00,Wunderground v.1.15,2013-09-10 16:46:00,
2013-09-10 12:47:00,78.0,72.4,30.12,SSE,167,0.0,0.0,83,0.00,,,0.00,Wunderground v.1.15,2013-09-10 16:47:00,
2013-09-10 12:48:00,77.9,72.7,30.12,South,180,0.0,0.0,84,0.00,,,0.00,Wunderground v.1.15,2013-09-10 16:48:00,
2013-09-10 12:51:00,78.1,72.9,30.12,SSE,167,0.0,0.0,84,0.00,,,0.00,Wunderground v.1.15,2013-09-10 16:51:00,
2013-09-10 12:52:00,78.2,72.6,30.12,SSW,198,0.0,3.0,83,0.00,,,0.00,Wunderground v.1.15,2013-09-10 16:52:00,
2013-09-10 12:56:00,78.0,72.8,30.11,SSE,157,0.0,3.0,84,0.00,,,0.00,Wunderground v.1.15,2013-09-10 16:56:00,
2013-09-10 12:57:00,78.0,72.8,30.11,ESE,109,0.0,3.0,84,0.00,,,0.00,Wunderground v.1.15,2013-09-10 16:57:00,
2013-09-10 12:58:00,77.7,72.5,30.11,South,169,0.0,3.0,84,0.00,,,0.00,Wunderground v.1.15,2013-09-10 16:58:00,
2013-09-10 13:02:00,77.3,72.4,30.11,SE,136,0.0,0.0,85,0.00,,,0.00,Wunderground v.1.15,2013-09-10 17:02:00,
2013-09-10 13:03:00,77.4,72.5,30.11,SE,136,0.0,0.0,85,0.00,,,0.00,Wunderground v.1.15,2013-09-10 17:03:00,
2013-09-10 13:04:00,77.4,72.5,30.11,SE,136,0.0,0.0,85,0.00,,,0.00,Wunderground v.1.15,2013-09-10 17:04:00,
2013-09-10 13:09:00,77.9,73.0,30.11,SE,145,0.0,3.0,85,0.00,,,0.00,Wunderground v.1.15,2013-09-10 17:09:00,
2013-09-10 13:10:00,77.9,73.0,30.11,South,169,0.0,0.0,85,0.00,,,0.00,Wunderground v.1.15,2013-09-10 17:10:00,
2013-09-10 13:11:00,78.1,73.2,30.10,SSE,148,0.0,2.0,85,0.00,,,0.00,Wunderground v.1.15,2013-09-10 17:11:00,
2013-09-10 13:13:00,78.3,73.1,30.10,SSE,166,1.0,2.0,84,0.00,,,0.00,Wunderground v.1.15,2013-09-10 17:13:00,
2013-09-10 13:14:00,78.3,72.7,30.10,South,182,1.0,2.0,83,0.00,,,0.00,Wunderground v.1.15,2013-09-10 17:14:00,
2013-09-10 13:15:00,78.3,72.7,30.10,SSE,154,1.0,3.0,83,0.00,,,0.00,Wunderground v.1.15,2013-09-10 17:15:00,
2013-09-10 13:18:00,78.5,72.9,30.10,South,170,1.0,3.0,83,0.00,,,0.00,Wunderground v.1.15,2013-09-10 17:18:00,
2013-09-10 13:19:00,78.6,73.0,30.10,South,169,1.0,3.0,83,0.00,,,0.00,Wunderground v.1.15,2013-09-10 17:19:00,
2013-09-10 13:21:00,78.7,73.1,30.10,SSE,161,0.0,1.0,83,0.00,,,0.00,Wunderground v.1.15,2013-09-10 17:21:00,
2013-09-10 13:23:00,78.9,73.7,30.10,SSE,161,0.0,1.0,84,0.00,,,0.00,Wunderground v.1.15,2013-09-10 17:23:00,
2013-09-10 13:24:00,79.0,73.4,30.10,SSE,161,0.0,1.0,83,0.00,,,0.00,Wunderground v.1.15,2013-09-10 17:24:00,
2013-09-10 13:26:00,79.5,74.2,30.10,SSE,151,0.0,1.0,84,0.00,,,0.00,Wunderground v.1.15,2013-09-10 17:26:00,
2013-09-10 13:27:00,79.7,74.1,30.10,SSE,154,0.0,1.0,83,0.00,,,0.00,Wunderground v.1.15,2013-09-10 17:27:00,
2013-09-10 13:28:00,79.8,73.4,30.10,SSE,152,0.0,1.0,81,0.00,,,0.00,Wunderground v.1.15,2013-09-10 17:28:00,
2013-09-10 13:29:00,80.0,74.0,30.10,SSE,152,0.0,1.0,82,0.00,,,0.00,Wunderground v.1.15,2013-09-10 17:29:00,
2013-09-10 13:31:00,80.2,73.5,30.10,SSE,151,0.0,0.0,80,0.00,,,0.00,Wunderground v.1.15,2013-09-10 17:31:00,
2013-09-10 13:35:00,80.3,73.6,30.09,South,174,0.0,0.0,80,0.00,,,0.00,Wunderground v.1.15,2013-09-10 17:35:00,
2013-09-10 13:36:00,80.3,73.6,30.10,South,177,0.0,0.0,80,0.00,,,0.00,Wunderground v.1.15,2013-09-10 17:36:00,
2013-09-10 13:37:00,80.5,74.1,30.10,SE,136,0.0,0.0,81,0.00,,,0.00,Wunderground v.1.15,2013-09-10 17:37:00,
2013-09-10 13:39:00,80.6,73.9,30.10,SE,136,0.0,0.0,80,0.00,,,0.00,Wunderground v.1.15,2013-09-10 17:39:00,
2013-09-10 13:40:00,80.8,74.8,30.10,SSE,168,0.0,3.0,82,0.00,,,0.00,Wunderground v.1.15,2013-09-10 17:40:00,
2013-09-10 13:44:00,80.9,73.4,30.09,SE,139,0.0,3.0,78,0.00,,,0.00,Wunderground v.1.15,2013-09-10 17:44:00,
2013-09-10 13:45:00,80.6,73.1,30.09,SSE,147,0.0,3.0,78,0.00,,,0.00,Wunderground v.1.15,2013-09-10 17:45:00,
2013-09-10 13:46:00,80.3,73.6,30.09,SSE,155,0.0,3.0,80,0.00,,,0.00,Wunderground v.1.15,2013-09-10 17:46:00,
2013-09-10 13:49:00,80.1,73.7,30.09,South,170,0.0,3.0,81,0.00,,,0.00,Wunderground v.1.15,2013-09-10 17:49:00,
2013-09-10 13:51:00,80.2,73.5,30.09,SSE,161,0.0,4.0,80,0.00,,,0.00,Wunderground v.1.15,2013-09-10 17:51:00,
2013-09-10 13:54:00,80.2,73.5,30.09,SE,131,0.0,4.0,80,0.00,,,0.00,Wunderground v.1.15,2013-09-10 17:54:00,
2013-09-10 13:55:00,80.2,73.5,30.09,SE,131,0.0,4.0,80,0.00,,,0.00,Wunderground v.1.15,2013-09-10 17:55:00,
2013-09-10 13:57:00,80.2,74.2,30.09,SSE,152,0.0,4.0,82,0.00,,,0.00,Wunderground v.1.15,2013-09-10 17:57:00,
2013-09-10 13:59:00,80.5,73.4,30.09,SSE,163,0.0,4.0,79,0.00,,,0.00,Wunderground v.1.15,2013-09-10 17:59:00,
2013-09-10 14:03:00,81.1,74.0,30.09,SSE,166,0.0,2.0,79,0.00,,,0.00,Wunderground v.1.15,2013-09-10 18:03:00,
2013-09-10 14:04:00,81.2,74.1,30.09,SSE,168,0.0,2.0,79,0.00,,,0.00,Wunderground v.1.15,2013-09-10 18:04:00,
2013-09-10 14:07:00,81.2,74.1,30.08,SE,143,1.0,3.0,79,0.00,,,0.00,Wunderground v.1.15,2013-09-10 18:07:00,
2013-09-10 14:09:00,81.2,74.4,30.09,SSE,163,0.0,4.0,80,0.00,,,0.00,Wunderground v.1.15,2013-09-10 18:09:00,
2013-09-10 14:11:00,81.2,74.1,30.08,East,86,1.0,1.0,79,0.00,,,0.00,Wunderground v.1.15,2013-09-10 18:11:00,
2013-09-10 14:13:00,80.9,74.1,30.09,SE,141,1.0,1.0,80,0.00,,,0.00,Wunderground v.1.15,2013-09-10 18:13:00,
2013-09-10 14:17:00,81.2,74.8,30.08,SSE,159,0.0,4.0,81,0.00,,,0.00,Wunderground v.1.15,2013-09-10 18:17:00,
2013-09-10 14:22:00,81.6,74.5,30.08,SSE,159,1.0,2.0,79,0.00,,,0.00,Wunderground v.1.15,2013-09-10 18:22:00,
2013-09-10 14:23:00,81.7,74.5,30.08,SSE,166,1.0,2.0,79,0.00,,,0.00,Wunderground v.1.15,2013-09-10 18:23:00,
2013-09-10 14:24:00,81.8,74.3,30.08,South,170,1.0,2.0,78,0.00,,,0.00,Wunderground v.1.15,2013-09-10 18:24:00,
2013-09-10 14:27:00,81.8,74.6,30.08,SSE,167,1.0,2.0,79,0.00,,,0.00,Wunderground v.1.15,2013-09-10 18:27:00,
2013-09-10 14:28:00,82.0,75.2,30.08,SSE,167,1.0,2.0,80,0.00,,,0.00,Wunderground v.1.15,2013-09-10 18:28:00,
2013-09-10 14:29:00,82.0,75.2,30.08,SSE,167,0.0,2.0,80,0.00,,,0.00,Wunderground v.1.15,2013-09-10 18:29:00,
2013-09-10 14:32:00,82.0,74.8,30.08,South,169,0.0,0.0,79,0.00,,,0.00,Wunderground v.1.15,2013-09-10 18:32:00,
2013-09-10 14:33:00,82.0,74.8,30.08,SSE,166,0.0,3.0,79,0.00,,,0.00,Wunderground v.1.15,2013-09-10 18:33:00,
2013-09-10 14:35:00,82.2,75.0,30.08,South,171,0.0,3.0,79,0.00,,,0.00,Wunderground v.1.15,2013-09-10 18:35:00,
2013-09-10 14:36:00,82.2,74.7,30.08,South,172,0.0,3.0,78,0.00,,,0.00,Wunderground v.1.15,2013-09-10 18:36:00,
2013-09-10 14:42:00,82.7,75.1,30.08,South,173,0.0,0.0,78,0.00,,,0.00,Wunderground v.1.15,2013-09-10 18:42:00,
2013-09-10 14:43:00,82.9,75.7,30.08,South,187,0.0,0.0,79,0.00,,,0.00,Wunderground v.1.15,2013-09-10 18:43:00,
2013-09-10 14:45:00,82.9,75.3,30.08,South,174,0.0,0.0,78,0.00,,,0.00,Wunderground v.1.15,2013-09-10 18:45:00,
2013-09-10 14:46:00,82.8,74.5,30.08,South,189,0.0,0.0,76,0.00,,,0.00,Wunderground v.1.15,2013-09-10 18:46:00,
2013-09-10 14:52:00,82.5,74.6,30.08,SSW,200,1.0,1.0,77,0.00,,,0.00,Wunderground v.1.15,2013-09-10 18:52:00,
2013-09-10 14:53:00,82.5,74.6,30.08,SSE,167,1.0,1.0,77,0.00,,,0.00,Wunderground v.1.15,2013-09-10 18:53:00,
2013-09-10 14:55:00,82.6,75.0,30.08,South,176,1.0,1.0,78,0.00,,,0.00,Wunderground v.1.15,2013-09-10 18:55:00,
2013-09-10 14:57:00,82.7,74.8,30.08,SSE,148,1.0,1.0,77,0.00,,,0.00,Wunderground v.1.15,2013-09-10 18:57:00,
2013-09-10 15:00:00,82.8,74.8,30.08,SSE,161,0.0,4.0,77,0.00,,,0.00,Wunderground v.1.15,2013-09-10 19:00:00,
2013-09-10 15:01:00,82.9,74.9,30.08,SSE,160,0.0,4.0,77,0.00,,,0.00,Wunderground v.1.15,2013-09-10 19:01:00,
2013-09-10 15:06:00,82.8,75.6,30.08,SSE,163,1.0,4.0,79,0.00,,,0.00,Wunderground v.1.15,2013-09-10 19:06:00,
2013-09-10 15:08:00,83.0,75.4,30.08,SSE,159,1.0,4.0,78,0.00,,,0.00,Wunderground v.1.15,2013-09-10 19:08:00,
2013-09-10 15:12:00,83.3,75.3,30.08,SSE,161,0.0,2.0,77,0.00,,,0.00,Wunderground v.1.15,2013-09-10 19:12:00,
2013-09-10 15:13:00,83.3,75.3,30.08,South,178,0.0,2.0,77,0.00,,,0.00,Wunderground v.1.15,2013-09-10 19:13:00,
2013-09-10 15:14:00,83.2,74.8,30.08,South,179,0.0,2.0,76,0.00,,,0.00,Wunderground v.1.15,2013-09-10 19:14:00,
2013-09-10 15:16:00,83.1,75.1,30.08,SSE,161,0.0,2.0,77,0.00,,,0.00,Wunderground v.1.15,2013-09-10 19:16:00,
2013-09-10 15:17:00,83.0,75.0,30.08,SSE,162,0.0,2.0,77,0.00,,,0.00,Wunderground v.1.15,2013-09-10 19:17:00,
2013-09-10 15:19:00,83.0,75.0,30.08,South,169,0.0,2.0,77,0.00,,,0.00,Wunderground v.1.15,2013-09-10 19:19:00,
2013-09-10 15:20:00,83.0,75.0,30.08,ESE,106,0.0,0.0,77,0.00,,,0.00,Wunderground v.1.15,2013-09-10 19:20:00,
2013-09-10 15:25:00,82.9,75.3,30.08,SSE,159,0.0,3.0,78,0.00,,,0.00,Wunderground v.1.15,2013-09-10 19:25:00,
2013-09-10 15:26:00,83.0,75.4,30.08,SSE,158,0.0,3.0,78,0.00,,,0.00,Wunderground v.1.15,2013-09-10 19:26:00,
2013-09-10 15:28:00,83.0,75.4,30.08,SSE,161,0.0,3.0,78,0.00,,,0.00,Wunderground v.1.15,2013-09-10 19:28:00,
2013-09-10 15:29:00,83.0,75.4,30.07,South,175,0.0,3.0,78,0.00,,,0.00,Wunderground v.1.15,2013-09-10 19:29:00,
2013-09-10 15:30:00,83.0,75.4,30.08,South,171,0.0,1.0,78,0.00,,,0.00,Wunderground v.1.15,2013-09-10 19:30:00,
2013-09-10 15:32:00,83.0,75.4,30.08,SE,145,1.0,1.0,78,0.00,,,0.00,Wunderground v.1.15,2013-09-10 19:32:00,
2013-09-10 15:34:00,82.9,75.3,30.07,SE,146,1.0,1.0,78,0.00,,,0.00,Wunderground v.1.15,2013-09-10 19:34:00,
2013-09-10 15:35:00,82.8,75.2,30.08,SSW,201,1.0,1.0,78,0.00,,,0.00,Wunderground v.1.15,2013-09-10 19:35:00,
2013-09-10 15:37:00,82.8,74.8,30.07,SE,144,1.0,1.0,77,0.00,,,0.00,Wunderground v.1.15,2013-09-10 19:37:00,
2013-09-10 15:40:00,83.0,75.4,30.07,SSE,158,0.0,0.0,78,0.00,,,0.00,Wunderground v.1.15,2013-09-10 19:40:00,
2013-09-10 15:42:00,83.0,75.4,30.07,SSE,150,0.0,0.0,78,0.00,,,0.00,Wunderground v.1.15,2013-09-10 19:42:00,
2013-09-10 15:43:00,83.0,75.0,30.07,SSE,157,0.0,0.0,77,0.00,,,0.00,Wunderground v.1.15,2013-09-10 19:43:00,
2013-09-10 15:45:00,82.9,74.9,30.07,South,179,0.0,4.0,77,0.00,,,0.00,Wunderground v.1.15,2013-09-10 19:45:00,
2013-09-10 15:47:00,82.8,75.6,30.07,SSE,151,0.0,4.0,79,0.00,,,0.00,Wunderground v.1.15,2013-09-10 19:47:00,
2013-09-10 15:49:00,82.7,75.5,30.07,SSE,152,0.0,4.0,79,0.00,,,0.00,Wunderground v.1.15,2013-09-10 19:49:00,
2013-09-10 15:54:00,82.5,74.9,30.07,SSE,157,0.0,0.0,78,0.00,,,0.00,Wunderground v.1.15,2013-09-10 19:54:00,
2013-09-10 15:57:00,82.5,75.3,30.07,SSE,159,0.0,0.0,79,0.00,,,0.00,Wunderground v.1.15,2013-09-10 19:57:00,
2013-09-10 15:59:00,82.6,75.8,30.07,SSE,162,0.0,0.0,80,0.00,,,0.00,Wunderground v.1.15,2013-09-10 19:59:00,
2013-09-10 16:00:00,82.6,75.4,30.07,SSE,162,0.0,0.0,79,0.00,,,0.00,Wunderground v.1.15,2013-09-10 20:00:00,
2013-09-10 16:01:00,82.6,75.4,30.07,South,191,0.0,0.0,79,0.00,,,0.00,Wunderground v.1.15,2013-09-10 20:01:00,
2013-09-10 16:04:00,82.5,75.3,30.07,SSE,150,0.0,0.0,79,0.00,,,0.00,Wunderground v.1.15,2013-09-10 20:04:00,
2013-09-10 16:09:00,82.4,75.2,30.07,South,184,0.0,0.0,79,0.00,,,0.00,Wunderground v.1.15,2013-09-10 20:09:00,
2013-09-10 16:10:00,82.5,75.3,30.07,South,170,0.0,0.0,79,0.00,,,0.00,Wunderground v.1.15,2013-09-10 20:10:00,
2013-09-10 16:12:00,82.6,75.8,30.07,SSE,168,0.0,0.0,80,0.00,,,0.00,Wunderground v.1.15,2013-09-10 20:12:00,
2013-09-10 16:15:00,82.6,75.4,30.06,SSE,159,1.0,6.0,79,0.00,,,0.00,Wunderground v.1.15,2013-09-10 20:15:00,
2013-09-10 16:16:00,82.6,75.4,30.07,South,170,1.0,6.0,79,0.00,,,0.00,Wunderground v.1.15,2013-09-10 20:16:00,
2013-09-10 16:20:00,82.6,75.4,30.07,SSE,159,2.0,2.0,79,0.00,,,0.00,Wunderground v.1.15,2013-09-10 20:20:00,
2013-09-10 16:21:00,82.7,75.5,30.06,SE,145,2.0,2.0,79,0.00,,,0.00,Wunderground v.1.15,2013-09-10 20:21:00,
2013-09-10 16:22:00,82.7,75.9,30.06,South,173,2.0,2.0,80,0.00,,,0.00,Wunderground v.1.15,2013-09-10 20:22:00,
2013-09-10 16:25:00,82.7,75.1,30.06,SSE,167,1.0,2.0,78,0.00,,,0.00,Wunderground v.1.15,2013-09-10 20:25:00,
2013-09-10 16:27:00,82.7,75.9,30.06,SSE,167,1.0,2.0,80,0.00,,,0.00,Wunderground v.1.15,2013-09-10 20:27:00,
2013-09-10 16:30:00,82.6,75.4,30.06,SSE,157,1.0,1.0,79,0.00,,,0.00,Wunderground v.1.15,2013-09-10 20:30:00,
2013-09-10 16:31:00,82.6,75.0,30.06,SSW,197,0.0,1.0,78,0.00,,,0.00,Wunderground v.1.15,2013-09-10 20:31:00,
2013-09-10 16:32:00,82.6,75.4,30.06,South,170,0.0,1.0,79,0.00,,,0.00,Wunderground v.1.15,2013-09-10 20:32:00,
2013-09-10 16:33:00,82.6,75.4,30.06,South,169,0.0,1.0,79,0.00,,,0.00,Wunderground v.1.15,2013-09-10 20:33:00,
2013-09-10 16:37:00,82.6,75.4,30.06,SSE,157,0.0,4.0,79,0.00,,,0.00,Wunderground v.1.15,2013-09-10 20:37:00,
2013-09-10 16:40:00,82.7,75.5,30.06,SSW,198,0.0,0.0,79,0.00,,,0.00,Wunderground v.1.15,2013-09-10 20:40:00,
2013-09-10 16:41:00,82.7,75.1,30.06,SSE,165,0.0,6.0,78,0.00,,,0.00,Wunderground v.1.15,2013-09-10 20:41:00,
2013-09-10 16:42:00,82.7,75.5,30.06,SSW,207,0.0,6.0,79,0.00,,,0.00,Wunderground v.1.15,2013-09-10 20:42:00,
2013-09-10 16:43:00,82.7,75.5,30.06,South,184,0.0,6.0,79,0.00,,,0.00,Wunderground v.1.15,2013-09-10 20:43:00,
2013-09-10 16:45:00,82.7,75.5,30.06,SSE,164,0.0,6.0,79,0.00,,,0.00,Wunderground v.1.15,2013-09-10 20:45:00,
2013-09-10 16:46:00,82.7,75.9,30.06,SE,134,0.0,6.0,80,0.00,,,0.00,Wunderground v.1.15,2013-09-10 20:46:00,
2013-09-10 16:49:00,82.7,75.5,30.06,SSE,153,0.0,6.0,79,0.00,,,0.00,Wunderground v.1.15,2013-09-10 20:49:00,
2013-09-10 16:54:00,82.6,75.8,30.06,SSE,167,0.0,0.0,80,0.00,,,0.00,Wunderground v.1.15,2013-09-10 20:54:00,
2013-09-10 16:58:00,82.6,75.8,30.06,SE,144,0.0,0.0,80,0.00,,,0.00,Wunderground v.1.15,2013-09-10 20:58:00,
2013-09-10 17:00:00,82.5,75.3,30.06,SE,144,0.0,0.0,79,0.00,,,0.00,Wunderground v.1.15,2013-09-10 21:00:00,
2013-09-10 17:01:00,82.5,75.7,30.06,SSE,163,0.0,0.0,80,0.00,,,0.00,Wunderground v.1.15,2013-09-10 21:01:00,
2013-09-10 17:02:00,82.5,75.7,30.06,SW,234,0.0,0.0,80,0.00,,,0.00,Wunderground v.1.15,2013-09-10 21:02:00,
2013-09-10 17:03:00,82.4,75.2,30.06,South,181,0.0,0.0,79,0.00,,,0.00,Wunderground v.1.15,2013-09-10 21:03:00,
2013-09-10 17:05:00,82.5,75.7,30.06,SSE,168,0.0,1.0,80,0.00,,,0.00,Wunderground v.1.15,2013-09-10 21:05:00,
2013-09-10 17:08:00,82.5,75.3,30.06,SSE,165,0.0,1.0,79,0.00,,,0.00,Wunderground v.1.15,2013-09-10 21:08:00,
2013-09-10 17:09:00,82.5,75.3,30.06,SSE,164,0.0,1.0,79,0.00,,,0.00,Wunderground v.1.15,2013-09-10 21:09:00,
2013-09-10 17:13:00,82.4,75.2,30.06,SSE,168,0.0,0.0,79,0.00,,,0.00,Wunderground v.1.15,2013-09-10 21:13:00,
2013-09-10 17:15:00,82.3,75.1,30.06,South,178,0.0,0.0,79,0.00,,,0.00,Wunderground v.1.15,2013-09-10 21:15:00,
2013-09-10 17:16:00,82.3,75.5,30.06,SSE,165,0.0,0.0,80,0.00,,,0.00,Wunderground v.1.15,2013-09-10 21:16:00,
2013-09-10 17:18:00,82.4,75.6,30.06,SSE,162,0.0,0.0,80,0.00,,,0.00,Wunderground v.1.15,2013-09-10 21:18:00,
2013-09-10 17:20:00,82.4,75.6,30.06,SSE,162,0.0,0.0,80,0.00,,,0.00,Wunderground v.1.15,2013-09-10 21:20:00,
2013-09-10 17:21:00,82.4,75.6,30.06,SSE,162,0.0,0.0,80,0.00,,,0.00,Wunderground v.1.15,2013-09-10 21:21:00,
2013-09-10 17:24:00,82.4,75.6,30.06,South,189,0.0,0.0,80,0.00,,,0.00,Wunderground v.1.15,2013-09-10 21:24:00,
2013-09-10 17:25:00,82.4,75.6,30.06,South,189,0.0,0.0,80,0.00,,,0.00,Wunderground v.1.15,2013-09-10 21:25:00,
2013-09-10 17:30:00,82.4,76.0,30.06,South,184,0.0,0.0,81,0.00,,,0.00,Wunderground v.1.15,2013-09-10 21:30:00,
2013-09-10 17:33:00,82.3,75.9,30.06,SSE,165,0.0,0.0,81,0.00,,,0.00,Wunderground v.1.15,2013-09-10 21:33:00,
2013-09-10 17:35:00,82.3,75.9,30.06,SSE,165,0.0,0.0,81,0.00,,,0.00,Wunderground v.1.15,2013-09-10 21:35:00,
2013-09-10 17:36:00,82.2,75.4,30.06,South,173,0.0,0.0,80,0.00,,,0.00,Wunderground v.1.15,2013-09-10 21:36:00,
2013-09-10 17:40:00,82.1,75.3,30.06,SSE,161,0.0,0.0,80,0.00,,,0.00,Wunderground v.1.15,2013-09-10 21:40:00,
2013-09-10 17:41:00,82.1,75.7,30.06,SSE,161,0.0,0.0,81,0.00,,,0.00,Wunderground v.1.15,2013-09-10 21:41:00,
2013-09-10 17:42:00,82.1,75.7,30.06,SSE,161,0.0,0.0,81,0.00,,,0.00,Wunderground v.1.15,2013-09-10 21:42:00,
2013-09-10 17:43:00,82.1,75.7,30.06,SSE,159,0.0,0.0,81,0.00,,,0.00,Wunderground v.1.15,2013-09-10 21:43:00,
2013-09-10 17:46:00,82.0,75.6,30.06,SSE,159,0.0,0.0,81,0.00,,,0.00,Wunderground v.1.15,2013-09-10 21:46:00,
2013-09-10 17:47:00,82.0,75.6,30.06,South,175,0.0,0.0,81,0.00,,,0.00,Wunderground v.1.15,2013-09-10 21:47:00,
2013-09-10 17:51:00,81.9,75.5,30.06,South,172,0.0,0.0,81,0.00,,,0.00,Wunderground v.1.15,2013-09-10 21:51:00,
2013-09-10 17:53:00,81.8,75.4,30.06,SSW,206,0.0,0.0,81,0.00,,,0.00,Wunderground v.1.15,2013-09-10 21:53:00,
2013-09-10 17:56:00,81.6,75.6,30.06,SSE,160,0.0,1.0,82,0.00,,,0.00,Wunderground v.1.15,2013-09-10 21:56:00,
2013-09-10 17:57:00,81.6,75.6,30.06,SSE,160,0.0,1.0,82,0.00,,,0.00,Wunderground v.1.15,2013-09-10 21:57:00,
2013-09-10 17:58:00,81.5,75.5,30.06,SSE,160,0.0,1.0,82,0.00,,,0.00,Wunderground v.1.15,2013-09-10 21:58:00,
2013-09-10 17:59:00,81.4,75.4,30.06,SSE,153,0.0,1.0,82,0.00,,,0.00,Wunderground v.1.15,2013-09-10 21:59:00,
2013-09-10 18:03:00,81.4,75.4,30.06,SSE,153,0.0,0.0,82,0.00,,,0.00,Wunderground v.1.15,2013-09-10 22:03:00,
2013-09-10 18:04:00,81.4,75.4,30.06,SSE,153,0.0,0.0,82,0.00,,,0.00,Wunderground v.1.15,2013-09-10 22:04:00,
2013-09-10 18:05:00,81.4,75.4,30.06,SSE,153,0.0,0.0,82,0.00,,,0.00,Wunderground v.1.15,2013-09-10 22:05:00,
2013-09-10 18:06:00,81.3,75.3,30.06,SSE,153,0.0,0.0,82,0.00,,,0.00,Wunderground v.1.15,2013-09-10 22:06:00,
2013-09-10 18:10:00,81.1,75.4,30.06,SSE,153,0.0,0.0,83,0.00,,,0.00,Wunderground v.1.15,2013-09-10 22:10:00,
2013-09-10 18:15:00,80.9,75.2,30.06,SSE,166,0.0,0.0,83,0.00,,,0.00,Wunderground v.1.15,2013-09-10 22:15:00,
2013-09-10 18:16:00,80.9,75.2,30.06,SSE,166,0.0,0.0,83,0.00,,,0.00,Wunderground v.1.15,2013-09-10 22:16:00,
2013-09-10 18:19:00,80.9,75.2,30.07,SSE,166,0.0,0.0,83,0.00,,,0.00,Wunderground v.1.15,2013-09-10 22:19:00,
2013-09-10 18:20:00,80.8,75.2,30.06,SSE,166,0.0,0.0,83,0.00,,,0.00,Wunderground v.1.15,2013-09-10 22:20:00,
2013-09-10 18:21:00,80.8,75.5,30.06,SSE,164,0.0,0.0,84,0.00,,,0.00,Wunderground v.1.15,2013-09-10 22:21:00,
2013-09-10 18:26:00,80.6,75.3,30.06,SSE,164,0.0,0.0,84,0.00,,,0.00,Wunderground v.1.15,2013-09-10 22:26:00,
2013-09-10 18:27:00,80.5,75.2,30.06,SSE,164,0.0,0.0,84,0.00,,,0.00,Wunderground v.1.15,2013-09-10 22:27:00,
2013-09-10 18:28:00,80.4,75.1,30.06,SSE,164,0.0,0.0,84,0.00,,,0.00,Wunderground v.1.15,2013-09-10 22:28:00,
2013-09-10 18:29:00,80.3,75.4,30.06,SSE,164,0.0,0.0,85,0.00,,,0.00,Wunderground v.1.15,2013-09-10 22:29:00,
2013-09-10 18:31:00,80.1,75.2,30.06,SSE,167,0.0,0.0,85,0.00,,,0.00,Wunderground v.1.15,2013-09-10 22:31:00,
2013-09-10 18:33:00,80.0,75.1,30.06,South,184,0.0,4.0,85,0.00,,,0.00,Wunderground v.1.15,2013-09-10 22:33:00,
2013-09-10 18:35:00,80.0,75.1,30.06,South,184,0.0,4.0,85,0.00,,,0.00,Wunderground v.1.15,2013-09-10 22:35:00,
2013-09-10 18:37:00,79.9,75.0,30.06,SSE,164,0.0,4.0,85,0.00,,,0.00,Wunderground v.1.15,2013-09-10 22:37:00,
2013-09-10 18:40:00,79.8,75.2,30.07,SSE,166,0.0,0.0,86,0.00,,,0.00,Wunderground v.1.15,2013-09-10 22:40:00,
2013-09-10 18:42:00,79.6,75.0,30.07,SSE,166,0.0,0.0,86,0.00,,,0.00,Wunderground v.1.15,2013-09-10 22:42:00,
2013-09-10 18:44:00,79.5,74.9,30.07,SSE,166,0.0,0.0,86,0.00,,,0.00,Wunderground v.1.15,2013-09-10 22:44:00,
2013-09-10 18:45:00,79.5,74.9,30.07,SSE,166,0.0,0.0,86,0.00,,,0.00,Wunderground v.1.15,2013-09-10 22:45:00,
2013-09-10 18:47:00,79.4,74.8,30.07,SSE,166,0.0,0.0,86,0.00,,,0.00,Wunderground v.1.15,2013-09-10 22:47:00,
2013-09-10 18:49:00,79.3,74.7,30.07,SSE,166,0.0,0.0,86,0.00,,,0.00,Wunderground v.1.15,2013-09-10 22:49:00,
2013-09-10 18:53:00,79.2,74.6,30.07,SSE,164,0.0,0.0,86,0.00,,,0.00,Wunderground v.1.15,2013-09-10 22:53:00,
2013-09-10 18:55:00,79.2,75.0,30.07,South,180,0.0,0.0,87,0.00,,,0.00,Wunderground v.1.15,2013-09-10 22:55:00,
2013-09-10 18:56:00,79.2,75.0,30.07,South,180,0.0,0.0,87,0.00,,,0.00,Wunderground v.1.15,2013-09-10 22:56:00,
2013-09-10 18:58:00,79.2,75.0,30.07,South,172,0.0,1.0,87,0.00,,,0.00,Wunderground v.1.15,2013-09-10 22:58:00,
2013-09-10 18:59:00,79.2,75.0,30.07,South,172,0.0,1.0,87,0.00,,,0.00,Wunderground v.1.15,2013-09-10 22:59:00,
2013-09-10 19:01:00,79.1,74.9,30.07,South,172,0.0,0.0,87,0.00,,,0.00,Wunderground v.1.15,2013-09-10 23:01:00,
2013-09-10 19:04:00,79.0,74.8,30.07,South,172,0.0,0.0,87,0.00,,,0.00,Wunderground v.1.15,2013-09-10 23:04:00,
2013-09-10 19:05:00,79.0,74.8,30.07,South,172,0.0,0.0,87,0.00,,,0.00,Wunderground v.1.15,2013-09-10 23:05:00,
2013-09-10 19:07:00,78.9,74.7,30.07,South,172,0.0,0.0,87,0.00,,,0.00,Wunderground v.1.15,2013-09-10 23:07:00,
2013-09-10 19:09:00,78.8,74.6,30.07,South,172,0.0,0.0,87,0.00,,,0.00,Wunderground v.1.15,2013-09-10 23:09:00,
2013-09-10 19:12:00,78.7,74.5,30.07,South,171,0.0,0.0,87,0.00,,,0.00,Wunderground v.1.15,2013-09-10 23:12:00,
2013-09-10 19:13:00,78.7,74.5,30.07,South,186,0.0,0.0,87,0.00,,,0.00,Wunderground v.1.15,2013-09-10 23:13:00,
2013-09-10 19:15:00,78.7,74.8,30.08,South,186,0.0,0.0,88,0.00,,,0.00,Wunderground v.1.15,2013-09-10 23:15:00,
2013-09-10 19:17:00,78.5,74.6,30.07,South,184,0.0,0.0,88,0.00,,,0.00,Wunderground v.1.15,2013-09-10 23:17:00,
2013-09-10 19:19:00,78.4,74.5,30.07,South,184,0.0,0.0,88,0.00,,,0.00,Wunderground v.1.15,2013-09-10 23:19:00,
2013-09-10 19:21:00,78.4,74.5,30.07,South,173,0.0,0.0,88,0.00,,,0.00,Wunderground v.1.15,2013-09-10 23:21:00,
2013-09-10 19:22:00,78.3,74.5,30.08,South,172,0.0,0.0,88,0.00,,,0.00,Wunderground v.1.15,2013-09-10 23:22:00,
2013-09-10 19:24:00,78.2,74.4,30.08,South,174,0.0,0.0,88,0.00,,,0.00,Wunderground v.1.15,2013-09-10 23:24:00,
2013-09-10 19:28:00,78.0,74.5,30.08,South,174,0.0,0.0,89,0.00,,,0.00,Wunderground v.1.15,2013-09-10 23:28:00,
2013-09-10 19:29:00,78.0,74.5,30.08,South,174,0.0,0.0,89,0.00,,,0.00,Wunderground v.1.15,2013-09-10 23:29:00,
2013-09-10 19:30:00,77.9,74.4,30.08,South,178,0.0,2.0,89,0.00,,,0.00,Wunderground v.1.15,2013-09-10 23:30:00,
2013-09-10 19:34:00,77.7,74.2,30.08,South,171,0.0,2.0,89,0.00,,,0.00,Wunderground v.1.15,2013-09-10 23:34:00,
2013-09-10 19:37:00,77.7,74.2,30.08,South,171,0.0,2.0,89,0.00,,,0.00,Wunderground v.1.15,2013-09-10 23:37:00,
2013-09-10 19:40:00,77.6,74.1,30.08,South,171,0.0,0.0,89,0.00,,,0.00,Wunderground v.1.15,2013-09-10 23:40:00,
2013-09-10 19:42:00,77.6,74.4,30.08,South,171,0.0,0.0,90,0.00,,,0.00,Wunderground v.1.15,2013-09-10 23:42:00,
2013-09-10 19:43:00,77.6,74.4,30.08,South,171,0.0,0.0,90,0.00,,,0.00,Wunderground v.1.15,2013-09-10 23:43:00,
2013-09-10 19:45:00,77.5,74.3,30.08,South,174,0.0,0.0,90,0.00,,,0.00,Wunderground v.1.15,2013-09-10 23:45:00,
2013-09-10 19:46:00,77.5,74.3,30.08,SSE,163,0.0,0.0,90,0.00,,,0.00,Wunderground v.1.15,2013-09-10 23:46:00,
2013-09-10 19:52:00,77.4,74.2,30.08,South,176,0.0,0.0,90,0.00,,,0.00,Wunderground v.1.15,2013-09-10 23:52:00,
2013-09-10 19:53:00,77.3,74.1,30.09,South,176,0.0,0.0,90,0.00,,,0.00,Wunderground v.1.15,2013-09-10 23:53:00,
2013-09-10 19:55:00,77.2,74.0,30.09,South,176,0.0,0.0,90,0.00,,,0.00,Wunderground v.1.15,2013-09-10 23:55:00,
2013-09-10 19:57:00,77.2,74.0,30.09,SSE,168,0.0,0.0,90,0.00,,,0.00,Wunderground v.1.15,2013-09-10 23:57:00,
2013-09-10 20:00:00,77.1,73.9,30.09,SSE,168,0.0,0.0,90,0.00,,,0.00,Wunderground v.1.15,2013-09-11 00:00:00,
2013-09-10 20:02:00,77.0,74.2,30.09,SSE,168,0.0,0.0,91,0.00,,,0.00,Wunderground v.1.15,2013-09-11 00:02:00,
2013-09-10 20:05:00,76.9,74.1,30.09,South,169,0.0,0.0,91,0.00,,,0.00,Wunderground v.1.15,2013-09-11 00:05:00,
2013-09-10 20:08:00,76.8,74.0,30.09,South,169,0.0,0.0,91,0.00,,,0.00,Wunderground v.1.15,2013-09-11 00:08:00,
2013-09-10 20:10:00,76.7,73.9,30.09,South,169,0.0,0.0,91,0.00,,,0.00,Wunderground v.1.15,2013-09-11 00:10:00,
2013-09-10 20:12:00,76.7,73.9,30.09,South,169,0.0,0.0,91,0.00,,,0.00,Wunderground v.1.15,2013-09-11 00:12:00,
2013-09-10 20:13:00,76.6,74.1,30.09,South,169,0.0,0.0,92,0.00,,,0.00,Wunderground v.1.15,2013-09-11 00:13:00,
2013-09-10 20:14:00,76.6,74.1,30.09,South,169,0.0,0.0,92,0.00,,,0.00,Wunderground v.1.15,2013-09-11 00:14:00,
2013-09-10 20:15:00,76.6,74.1,30.09,South,169,0.0,0.0,92,0.00,,,0.00,Wunderground v.1.15,2013-09-11 00:15:00,
2013-09-10 20:18:00,76.5,74.0,30.09,South,169,0.0,0.0,92,0.00,,,0.00,Wunderground v.1.15,2013-09-11 00:18:00,
2013-09-10 20:19:00,76.5,74.0,30.09,South,169,0.0,0.0,92,0.00,,,0.00,Wunderground v.1.15,2013-09-11 00:19:00,
2013-09-10 20:22:00,76.5,74.0,30.09,South,169,0.0,0.0,92,0.00,,,0.00,Wunderground v.1.15,2013-09-11 00:22:00,
2013-09-10 20:24:00,76.5,74.0,30.09,South,169,0.0,0.0,92,0.00,,,0.00,Wunderground v.1.15,2013-09-11 00:24:00,
2013-09-10 20:25:00,76.4,73.9,30.09,South,169,0.0,0.0,92,0.00,,,0.00,Wunderground v.1.15,2013-09-11 00:25:00,
2013-09-10 20:26:00,76.4,73.9,30.09,South,169,0.0,0.0,92,0.00,,,0.00,Wunderground v.1.15,2013-09-11 00:26:00,
2013-09-10 20:28:00,76.4,73.9,30.09,South,169,0.0,0.0,92,0.00,,,0.00,Wunderground v.1.15,2013-09-11 00:28:00,
2013-09-10 20:29:00,76.4,73.9,30.09,South,169,0.0,0.0,92,0.00,,,0.00,Wunderground v.1.15,2013-09-11 00:29:00,
2013-09-10 20:31:00,76.3,73.8,30.09,South,169,0.0,0.0,92,0.00,,,0.00,Wunderground v.1.15,2013-09-11 00:31:00,
2013-09-10 20:33:00,76.3,73.8,30.09,South,169,0.0,0.0,92,0.00,,,0.00,Wunderground v.1.15,2013-09-11 00:33:00,
2013-09-10 20:35:00,76.2,73.7,30.09,SSE,168,0.0,0.0,92,0.00,,,0.00,Wunderground v.1.15,2013-09-11 00:35:00,
2013-09-10 20:37:00,76.2,73.7,30.09,SSE,167,0.0,0.0,92,0.00,,,0.00,Wunderground v.1.15,2013-09-11 00:37:00,
2013-09-10 20:38:00,76.2,73.7,30.09,SSE,167,0.0,0.0,92,0.00,,,0.00,Wunderground v.1.15,2013-09-11 00:38:00,
2013-09-10 20:40:00,76.2,73.7,30.09,SSE,167,0.0,0.0,92,0.00,,,0.00,Wunderground v.1.15,2013-09-11 00:40:00,
2013-09-10 20:41:00,76.2,73.7,30.09,SSE,167,0.0,0.0,92,0.00,,,0.00,Wunderground v.1.15,2013-09-11 00:41:00,
2013-09-10 20:42:00,76.2,73.7,30.09,SSE,167,0.0,0.0,92,0.00,,,0.00,Wunderground v.1.15,2013-09-11 00:42:00,
2013-09-10 20:43:00,76.1,73.6,30.09,SSE,167,0.0,0.0,92,0.00,,,0.00,Wunderground v.1.15,2013-09-11 00:43:00,
2013-09-10 20:47:00,76.1,73.6,30.09,SSE,167,0.0,0.0,92,0.00,,,0.00,Wunderground v.1.15,2013-09-11 00:47:00,
2013-09-10 20:49:00,76.1,73.6,30.09,SSE,167,0.0,0.0,92,0.00,,,0.00,Wunderground v.1.15,2013-09-11 00:49:00,
2013-09-10 20:54:00,76.0,73.5,30.09,SSE,167,0.0,0.0,92,0.00,,,0.00,Wunderground v.1.15,2013-09-11 00:54:00,
2013-09-10 20:55:00,76.0,73.5,30.09,SSE,167,0.0,0.0,92,0.00,,,0.00,Wunderground v.1.15,2013-09-11 00:55:00,
2013-09-10 20:56:00,75.9,73.4,30.09,SSE,167,0.0,0.0,92,0.00,,,0.00,Wunderground v.1.15,2013-09-11 00:56:00,
2013-09-10 20:59:00,75.9,73.7,30.09,SSE,167,0.0,0.0,93,0.00,,,0.00,Wunderground v.1.15,2013-09-11 00:59:00,
2013-09-10 21:01:00,75.8,73.6,30.09,SSE,167,0.0,0.0,93,0.00,,,0.00,Wunderground v.1.15,2013-09-11 01:01:00,
2013-09-10 21:03:00,75.8,73.6,30.09,SSE,167,0.0,0.0,93,0.00,,,0.00,Wunderground v.1.15,2013-09-11 01:03:00,
2013-09-10 21:04:00,75.8,73.6,30.09,SSE,167,0.0,0.0,93,0.00,,,0.00,Wunderground v.1.15,2013-09-11 01:04:00,
2013-09-10 21:08:00,75.7,73.5,30.10,SSE,167,0.0,0.0,93,0.00,,,0.00,Wunderground v.1.15,2013-09-11 01:08:00,
2013-09-10 21:09:00,75.7,73.5,30.10,SSE,167,0.0,0.0,93,0.00,,,0.00,Wunderground v.1.15,2013-09-11 01:09:00,
2013-09-10 21:10:00,75.7,73.5,30.10,SSE,167,0.0,0.0,93,0.00,,,0.00,Wunderground v.1.15,2013-09-11 01:10:00,
2013-09-10 21:12:00,75.7,73.5,30.10,SSE,167,0.0,0.0,93,0.00,,,0.00,Wunderground v.1.15,2013-09-11 01:12:00,
2013-09-10 21:15:00,75.7,73.5,30.10,SSE,167,0.0,0.0,93,0.00,,,0.00,Wunderground v.1.15,2013-09-11 01:15:00,
2013-09-10 21:16:00,75.7,73.5,30.10,SSE,167,0.0,0.0,93,0.00,,,0.00,Wunderground v.1.15,2013-09-11 01:16:00,
2013-09-10 21:20:00,75.7,73.5,30.10,SSE,167,0.0,0.0,93,0.00,,,0.00,Wunderground v.1.15,2013-09-11 01:20:00,
2013-09-10 21:21:00,75.7,73.5,30.10,SSE,167,0.0,0.0,93,0.00,,,0.00,Wunderground v.1.15,2013-09-11 01:21:00,
2013-09-10 21:22:00,75.7,73.5,30.10,SSE,167,0.0,0.0,93,0.00,,,0.00,Wunderground v.1.15,2013-09-11 01:22:00,
2013-09-10 21:25:00,75.6,73.4,30.10,SSE,167,0.0,0.0,93,0.00,,,0.00,Wunderground v.1.15,2013-09-11 01:25:00,
2013-09-10 21:29:00,75.6,73.4,30.10,SE,146,0.0,0.0,93,0.00,,,0.00,Wunderground v.1.15,2013-09-11 01:29:00,
2013-09-10 21:31:00,75.5,73.3,30.10,SE,146,0.0,0.0,93,0.00,,,0.00,Wunderground v.1.15,2013-09-11 01:31:00,
2013-09-10 21:32:00,75.6,73.4,30.10,SE,146,0.0,0.0,93,0.00,,,0.00,Wunderground v.1.15,2013-09-11 01:32:00,
2013-09-10 21:35:00,75.5,73.3,30.10,SE,146,0.0,0.0,93,0.00,,,0.00,Wunderground v.1.15,2013-09-11 01:35:00,
2013-09-10 21:36:00,75.5,73.3,30.10,SE,146,0.0,0.0,93,0.00,,,0.00,Wunderground v.1.15,2013-09-11 01:36:00,
2013-09-10 21:39:00,75.5,73.3,30.10,SE,146,0.0,0.0,93,0.00,,,0.00,Wunderground v.1.15,2013-09-11 01:39:00,
2013-09-10 21:40:00,75.5,73.3,30.10,SE,146,0.0,0.0,93,0.00,,,0.00,Wunderground v.1.15,2013-09-11 01:40:00,
2013-09-10 21:43:00,75.4,73.2,30.10,SE,146,0.0,0.0,93,0.00,,,0.00,Wunderground v.1.15,2013-09-11 01:43:00,
2013-09-10 21:44:00,75.4,73.2,30.10,SE,146,0.0,0.0,93,0.00,,,0.00,Wunderground v.1.15,2013-09-11 01:44:00,
2013-09-10 21:46:00,75.3,73.1,30.10,SE,146,0.0,0.0,93,0.00,,,0.00,Wunderground v.1.15,2013-09-11 01:46:00,
2013-09-10 21:49:00,75.3,73.1,30.10,SE,146,0.0,0.0,93,0.00,,,0.00,Wunderground v.1.15,2013-09-11 01:49:00,
2013-09-10 21:50:00,75.3,73.1,30.10,SE,146,0.0,0.0,93,0.00,,,0.00,Wunderground v.1.15,2013-09-11 01:50:00,
2013-09-10 21:52:00,75.3,73.5,30.10,SE,146,0.0,0.0,94,0.00,,,0.00,Wunderground v.1.15,2013-09-11 01:52:00,
2013-09-10 21:55:00,75.2,73.4,30.10,South,183,0.0,0.0,94,0.00,,,0.00,Wunderground v.1.15,2013-09-11 01:55:00,
2013-09-10 22:00:00,75.3,73.5,30.11,South,183,0.0,0.0,94,0.00,,,0.00,Wunderground v.1.15,2013-09-11 02:00:00,
2013-09-10 22:03:00,75.2,73.4,30.11,South,183,0.0,0.0,94,0.00,,,0.00,Wunderground v.1.15,2013-09-11 02:03:00,
2013-09-10 22:05:00,75.2,73.4,30.11,South,183,0.0,0.0,94,0.00,,,0.00,Wunderground v.1.15,2013-09-11 02:05:00,
2013-09-10 22:06:00,75.2,73.4,30.11,South,183,0.0,0.0,94,0.00,,,0.00,Wunderground v.1.15,2013-09-11 02:06:00,
2013-09-10 22:10:00,75.1,73.3,30.11,South,183,0.0,0.0,94,0.00,,,0.00,Wunderground v.1.15,2013-09-11 02:10:00,
2013-09-10 22:12:00,75.1,73.3,30.11,South,182,0.0,0.0,94,0.00,,,0.00,Wunderground v.1.15,2013-09-11 02:12:00,
2013-09-10 22:15:00,75.1,73.3,30.11,South,182,0.0,0.0,94,0.00,,,0.00,Wunderground v.1.15,2013-09-11 02:15:00,
2013-09-10 22:16:00,75.1,73.3,30.11,South,182,0.0,0.0,94,0.00,,,0.00,Wunderground v.1.15,2013-09-11 02:16:00,
2013-09-10 22:18:00,75.1,73.3,30.11,South,173,0.0,0.0,94,0.00,,,0.00,Wunderground v.1.15,2013-09-11 02:18:00,
2013-09-10 22:20:00,75.1,73.3,30.11,South,173,0.0,0.0,94,0.00,,,0.00,Wunderground v.1.15,2013-09-11 02:20:00,
2013-09-10 22:21:00,75.1,73.3,30.11,South,173,0.0,0.0,94,0.00,,,0.00,Wunderground v.1.15,2013-09-11 02:21:00,
2013-09-10 22:25:00,75.2,73.4,30.11,South,173,0.0,0.0,94,0.00,,,0.00,Wunderground v.1.15,2013-09-11 02:25:00,
2013-09-10 22:26:00,75.1,73.3,30.11,South,173,0.0,0.0,94,0.00,,,0.00,Wunderground v.1.15,2013-09-11 02:26:00,
2013-09-10 22:27:00,75.2,73.4,30.11,South,173,0.0,0.0,94,0.00,,,0.00,Wunderground v.1.15,2013-09-11 02:27:00,
2013-09-10 22:31:00,75.1,73.3,30.11,South,173,0.0,0.0,94,0.00,,,0.00,Wunderground v.1.15,2013-09-11 02:31:00,
2013-09-10 22:32:00,75.1,73.3,30.11,South,173,0.0,0.0,94,0.00,,,0.00,Wunderground v.1.15,2013-09-11 02:32:00,
2013-09-10 22:33:00,75.1,73.3,30.11,South,173,0.0,0.0,94,0.00,,,0.00,Wunderground v.1.15,2013-09-11 02:33:00,
2013-09-10 22:36:00,75.1,73.3,30.11,SSE,150,0.0,0.0,94,0.00,,,0.00,Wunderground v.1.15,2013-09-11 02:36:00,
2013-09-10 22:39:00,75.1,73.3,30.11,SSE,150,0.0,0.0,94,0.00,,,0.00,Wunderground v.1.15,2013-09-11 02:39:00,
2013-09-10 22:40:00,75.1,73.3,30.11,SSE,150,0.0,0.0,94,0.00,,,0.00,Wunderground v.1.15,2013-09-11 02:40:00,
2013-09-10 22:42:00,75.1,73.3,30.11,SSE,150,0.0,0.0,94,0.00,,,0.00,Wunderground v.1.15,2013-09-11 02:42:00,
2013-09-10 22:43:00,75.1,73.3,30.11,SSE,150,0.0,0.0,94,0.00,,,0.00,Wunderground v.1.15,2013-09-11 02:43:00,
2013-09-10 22:46:00,75.1,73.3,30.11,SSE,150,0.0,0.0,94,0.00,,,0.00,Wunderground v.1.15,2013-09-11 02:46:00,
2013-09-10 22:47:00,75.1,73.3,30.11,SSE,150,0.0,0.0,94,0.00,,,0.00,Wunderground v.1.15,2013-09-11 02:47:00,
2013-09-10 22:51:00,75.0,73.2,30.11,SSE,150,0.0,0.0,94,0.00,,,0.00,Wunderground v.1.15,2013-09-11 02:51:00,
2013-09-10 22:55:00,75.1,73.3,30.11,SSE,150,0.0,0.0,94,0.00,,,0.00,Wunderground v.1.15,2013-09-11 02:55:00,
2013-09-10 22:57:00,75.0,73.2,30.11,SSE,150,0.0,0.0,94,0.00,,,0.00,Wunderground v.1.15,2013-09-11 02:57:00,
2013-09-10 22:59:00,75.0,73.2,30.11,SSE,150,0.0,0.0,94,0.00,,,0.00,Wunderground v.1.15,2013-09-11 02:59:00,
2013-09-10 23:00:00,75.0,73.2,30.11,SSE,150,0.0,0.0,94,0.00,,,0.00,Wunderground v.1.15,2013-09-11 03:00:00,
2013-09-10 23:01:00,75.0,73.2,30.11,SSE,150,0.0,0.0,94,0.00,,,0.00,Wunderground v.1.15,2013-09-11 03:01:00,
2013-09-10 23:03:00,75.0,73.2,30.11,SSE,150,0.0,0.0,94,0.00,,,0.00,Wunderground v.1.15,2013-09-11 03:03:00,
2013-09-10 23:06:00,74.9,73.1,30.11,SSE,150,0.0,0.0,94,0.00,,,0.00,Wunderground v.1.15,2013-09-11 03:06:00,
2013-09-10 23:09:00,74.9,73.1,30.11,SSE,150,0.0,0.0,94,0.00,,,0.00,Wunderground v.1.15,2013-09-11 03:09:00,
2013-09-10 23:11:00,74.9,73.1,30.11,SSE,150,0.0,0.0,94,0.00,,,0.00,Wunderground v.1.15,2013-09-11 03:11:00,
2013-09-10 23:12:00,74.9,73.1,30.11,SSE,150,0.0,0.0,94,0.00,,,0.00,Wunderground v.1.15,2013-09-11 03:12:00,
2013-09-10 23:13:00,74.9,72.7,30.11,SSE,150,0.0,0.0,93,0.00,,,0.00,Wunderground v.1.15,2013-09-11 03:13:00,
2013-09-10 23:14:00,74.9,72.7,30.11,SSE,150,0.0,0.0,93,0.00,,,0.00,Wunderground v.1.15,2013-09-11 03:14:00,
2013-09-10 23:16:00,74.9,72.7,30.11,SSE,150,0.0,0.0,93,0.00,,,0.00,Wunderground v.1.15,2013-09-11 03:16:00,
2013-09-10 23:19:00,74.8,73.0,30.11,SSE,150,0.0,0.0,94,0.00,,,0.00,Wunderground v.1.15,2013-09-11 03:19:00,
2013-09-10 23:22:00,74.8,73.0,30.11,SSE,150,0.0,0.0,94,0.00,,,0.00,Wunderground v.1.15,2013-09-11 03:22:00,
2013-09-10 23:24:00,74.8,73.0,30.11,SSE,150,0.0,0.0,94,0.00,,,0.00,Wunderground v.1.15,2013-09-11 03:24:00,
2013-09-10 23:25:00,74.8,73.0,30.11,SSE,150,0.0,0.0,94,0.00,,,0.00,Wunderground v.1.15,2013-09-11 03:25:00,
2013-09-10 23:26:00,74.8,73.0,30.11,SSE,150,0.0,0.0,94,0.00,,,0.00,Wunderground v.1.15,2013-09-11 03:26:00,
2013-09-10 23:27:00,74.8,73.0,30.11,SSE,150,0.0,0.0,94,0.00,,,0.00,Wunderground v.1.15,2013-09-11 03:27:00,
2013-09-10 23:29:00,74.7,72.9,30.11,SSE,150,0.0,0.0,94,0.00,,,0.00,Wunderground v.1.15,2013-09-11 03:29:00,
2013-09-10 23:32:00,74.7,72.9,30.11,SSE,150,0.0,0.0,94,0.00,,,0.00,Wunderground v.1.15,2013-09-11 03:32:00,
2013-09-10 23:35:00,74.7,72.9,30.11,SSE,150,0.0,0.0,94,0.00,,,0.00,Wunderground v.1.15,2013-09-11 03:35:00,
2013-09-10 23:36:00,74.7,72.9,30.11,SSE,150,0.0,0.0,94,0.00,,,0.00,Wunderground v.1.15,2013-09-11 03:36:00,
2013-09-10 23:37:00,74.7,72.9,30.11,SSE,150,0.0,0.0,94,0.00,,,0.00,Wunderground v.1.15,2013-09-11 03:37:00,
2013-09-10 23:39:00,74.6,72.8,30.11,SSE,150,0.0,0.0,94,0.00,,,0.00,Wunderground v.1.15,2013-09-11 03:39:00,
2013-09-10 23:40:00,74.6,72.8,30.11,SSE,150,0.0,0.0,94,0.00,,,0.00,Wunderground v.1.15,2013-09-11 03:40:00,
2013-09-10 23:42:00,74.6,72.8,30.11,North,32767,-999.0,0.0,94,0.00,,,0.00,Wunderground v.1.15,2013-09-11 03:42:00,
2013-09-10 23:43:00,74.6,72.8,30.11,North,32767,-999.0,0.0,94,0.00,,,0.00,Wunderground v.1.15,2013-09-11 03:43:00,
2013-09-10 23:46:00,74.6,72.8,30.11,North,32767,-999.0,0.0,94,0.00,,,0.00,Wunderground v.1.15,2013-09-11 03:46:00,
2013-09-10 23:47:00,74.6,72.8,30.11,North,32767,-999.0,0.0,94,0.00,,,0.00,Wunderground v.1.15,2013-09-11 03:47:00,
2013-09-10 23:48:00,74.6,72.8,30.11,North,32767,-999.0,0.0,94,0.00,,,0.00,Wunderground v.1.15,2013-09-11 03:48:00,
2013-09-10 23:50:00,74.5,72.7,30.11,North,32767,-999.0,0.0,94,0.00,,,0.00,Wunderground v.1.15,2013-09-11 03:50:00,
2013-09-10 23:51:00,74.5,72.7,30.11,North,32767,-999.0,0.0,94,0.00,,,0.00,Wunderground v.1.15,2013-09-11 03:51:00,
2013-09-10 23:53:00,74.5,72.7,30.11,North,32767,-999.0,0.0,94,0.00,,,0.00,Wunderground v.1.15,2013-09-11 03:53:00,
2013-09-10 23:56:00,74.5,72.7,30.11,North,32767,-999.0,0.0,94,0.00,,,0.00,Wunderground v.1.15,2013-09-11 03:56:00,
2013-09-10 23:57:00,74.5,72.7,30.11,North,32767,-999.0,0.0,94,0.00,,,0.00,Wunderground v.1.15,2013-09-11 03:57:00,
2013-09-10 23:59:00,74.5,72.7,30.11,North,32767,-999.0,0.0,94,0.00,,,0.00,Wunderground v.1.15,2013-09-11 03:59:00,